NOAA Web Site Link Tides and Currents Home Page Transparent placeholder image

PORTS® Data Listing: 8726694 TPA Cruise Terminal 2, FL

CO-OPS RAW PORTS DATA

************************      PRELIMINARY DATA      ************************** 

     THIS RAW DATA HAS NOT BEEN SUBJECT TO THE NATIONAL OCEAN SERVICE'S        
     QUALITY CONTROL OR QUALITY ASSURANCE PROCEDURES AND DOES NOT MEET         
     THE CRITERIA AND STANDARDS OF OFFICIAL NATIONAL OCEAN SERVICE             
     DATA.  IT IS RELEASED FOR LIMITED PUBLIC USE AS PRELIMINARY DATA TO       
     BE USED ONLY WITH APPROPRIATE CAUTION.                                    

************************      PRELIMINARY DATA      ************************** 


       CD   -   Calendar date
       T    -   Time
       TZ   -   Timezone
       PW   -   Predicted water level (feet above MLLW)
       OW   -   Observed water level (feet above MLLW)
       WS   -   Wind speed (knots)
       WD   -   Wind direction (degrees true)
       WG   -   Wind gust (knots)
       AT   -   Air temperature (degrees farenheit)
       WT   -   Water temperature (degrees farenheit)
       AP   -   Air pressure (millibars)
       SA   -   Salinty (PSU - Practical Salinity Units)
       SG   -   Specific gravity
       RH   -   Relative humidity
       AG   -   Air gap (feet)
       VI   -   Visibility (nautical miles)

       ** NOTE **
       A variable that has its data fields filled with "9"s, indicates that
       data was not collected for that sample period.
       **********


STATION NAME: TPA Cruise Terminal 2 MET (8726694)
****************************************************************************************************
    CD       T    TZ    PW     OW    WS   WD   WG    AT    WT    AP    SA    SG     RH    AG   VI
****************************************************************************************************
2019/07/18 03:30 EDT  -99.99 -99.99    1  156    2 -99.9 -99.9 -999.9 -9.9 -9.999 -99.9 -99.99 -9.99
2019/07/18 03:36 EDT  -99.99 -99.99    2  119    3 -99.9 -99.9 -999.9 -9.9 -9.999 -99.9 -99.99 -9.99
2019/07/18 03:42 EDT  -99.99 -99.99    3   25    4 -99.9 -99.9 -999.9 -9.9 -9.999 -99.9 -99.99 -9.99
2019/07/18 03:48 EDT  -99.99 -99.99    4   33    5 -99.9 -99.9 -999.9 -9.9 -9.999 -99.9 -99.99 -9.99
2019/07/18 03:54 EDT  -99.99 -99.99    3   39    4 -99.9 -99.9 -999.9 -9.9 -9.999 -99.9 -99.99 -9.99
2019/07/18 04:00 EDT  -99.99 -99.99    2   41    3 -99.9 -99.9 -999.9 -9.9 -9.999 -99.9 -99.99 -9.99
2019/07/18 04:06 EDT  -99.99 -99.99    4   36    4 -99.9 -99.9 -999.9 -9.9 -9.999 -99.9 -99.99 -9.99
2019/07/18 04:12 EDT  -99.99 -99.99    3   37    4 -99.9 -99.9 -999.9 -9.9 -9.999 -99.9 -99.99 -9.99
2019/07/18 04:18 EDT  -99.99 -99.99    3   59    4 -99.9 -99.9 -999.9 -9.9 -9.999 -99.9 -99.99 -9.99
2019/07/18 04:24 EDT  -99.99 -99.99    3   44    4 -99.9 -99.9 -999.9 -9.9 -9.999 -99.9 -99.99 -9.99
2019/07/18 04:30 EDT  -99.99 -99.99    5   36    5 -99.9 -99.9 -999.9 -9.9 -9.999 -99.9 -99.99 -9.99
2019/07/18 04:36 EDT  -99.99 -99.99    3   22    4 -99.9 -99.9 -999.9 -9.9 -9.999 -99.9 -99.99 -9.99
2019/07/18 04:42 EDT  -99.99 -99.99    2   36    3 -99.9 -99.9 -999.9 -9.9 -9.999 -99.9 -99.99 -9.99
2019/07/18 04:48 EDT  -99.99 -99.99    4   33    6 -99.9 -99.9 -999.9 -9.9 -9.999 -99.9 -99.99 -9.99
2019/07/18 04:54 EDT  -99.99 -99.99    2   31    4 -99.9 -99.9 -999.9 -9.9 -9.999 -99.9 -99.99 -9.99
2019/07/18 05:00 EDT  -99.99 -99.99    2   78    3 -99.9 -99.9 -999.9 -9.9 -9.999 -99.9 -99.99 -9.99
2019/07/18 05:06 EDT  -99.99 -99.99    4   42    5 -99.9 -99.9 -999.9 -9.9 -9.999 -99.9 -99.99 -9.99
2019/07/18 05:12 EDT  -99.99 -99.99    3   31    3 -99.9 -99.9 -999.9 -9.9 -9.999 -99.9 -99.99 -9.99
2019/07/18 05:18 EDT  -99.99 -99.99    3   76    3 -99.9 -99.9 -999.9 -9.9 -9.999 -99.9 -99.99 -9.99
2019/07/18 05:24 EDT  -99.99 -99.99 -999 -999 -999 -99.9 -99.9 -999.9 -9.9 -9.999 -99.9 -99.99 -9.99
2019/07/18 05:30 EDT  -99.99 -99.99 -999 -999 -999 -99.9 -99.9 -999.9 -9.9 -9.999 -99.9 -99.99 -9.99
2019/07/18 05:36 EDT  -99.99 -99.99    3   71    5 -99.9 -99.9 -999.9 -9.9 -9.999 -99.9 -99.99 -9.99
2019/07/18 05:42 EDT  -99.99 -99.99    3   77    4 -99.9 -99.9 -999.9 -9.9 -9.999 -99.9 -99.99 -9.99
2019/07/18 05:48 EDT  -99.99 -99.99    5   97    7 -99.9 -99.9 -999.9 -9.9 -9.999 -99.9 -99.99 -9.99
2019/07/18 05:54 EDT  -99.99 -99.99    2  100    4 -99.9 -99.9 -999.9 -9.9 -9.999 -99.9 -99.99 -9.99
2019/07/18 06:00 EDT  -99.99 -99.99    2  119    4 -99.9 -99.9 -999.9 -9.9 -9.999 -99.9 -99.99 -9.99
2019/07/18 06:06 EDT  -99.99 -99.99    3  117    5 -99.9 -99.9 -999.9 -9.9 -9.999 -99.9 -99.99 -9.99
2019/07/18 06:12 EDT  -99.99 -99.99    5  113    6 -99.9 -99.9 -999.9 -9.9 -9.999 -99.9 -99.99 -9.99
2019/07/18 06:18 EDT  -99.99 -99.99    3   73    5 -99.9 -99.9 -999.9 -9.9 -9.999 -99.9 -99.99 -9.99
2019/07/18 06:24 EDT  -99.99 -99.99    3   56    5 -99.9 -99.9 -999.9 -9.9 -9.999 -99.9 -99.99 -9.99
2019/07/18 06:30 EDT  -99.99 -99.99    4   53    5 -99.9 -99.9 -999.9 -9.9 -9.999 -99.9 -99.99 -9.99
2019/07/18 06:36 EDT  -99.99 -99.99    4   48    5 -99.9 -99.9 -999.9 -9.9 -9.999 -99.9 -99.99 -9.99
2019/07/18 06:42 EDT  -99.99 -99.99    3   32    5 -99.9 -99.9 -999.9 -9.9 -9.999 -99.9 -99.99 -9.99
2019/07/18 06:48 EDT  -99.99 -99.99    2   53    3 -99.9 -99.9 -999.9 -9.9 -9.999 -99.9 -99.99 -9.99
2019/07/18 06:54 EDT  -99.99 -99.99    2   71    3 -99.9 -99.9 -999.9 -9.9 -9.999 -99.9 -99.99 -9.99
2019/07/18 07:00 EDT  -99.99 -99.99    3   48    4 -99.9 -99.9 -999.9 -9.9 -9.999 -99.9 -99.99 -9.99
2019/07/18 07:06 EDT  -99.99 -99.99    4   42    5 -99.9 -99.9 -999.9 -9.9 -9.999 -99.9 -99.99 -9.99
2019/07/18 07:12 EDT  -99.99 -99.99    3   50    4 -99.9 -99.9 -999.9 -9.9 -9.999 -99.9 -99.99 -9.99
2019/07/18 07:18 EDT  -99.99 -99.99    2   42    4 -99.9 -99.9 -999.9 -9.9 -9.999 -99.9 -99.99 -9.99
2019/07/18 07:24 EDT  -99.99 -99.99    2   33    5 -99.9 -99.9 -999.9 -9.9 -9.999 -99.9 -99.99 -9.99
2019/07/18 07:30 EDT  -99.99 -99.99    3   48    4 -99.9 -99.9 -999.9 -9.9 -9.999 -99.9 -99.99 -9.99
2019/07/18 07:36 EDT  -99.99 -99.99    4   51    4 -99.9 -99.9 -999.9 -9.9 -9.999 -99.9 -99.99 -9.99
2019/07/18 07:42 EDT  -99.99 -99.99    2   57    3 -99.9 -99.9 -999.9 -9.9 -9.999 -99.9 -99.99 -9.99
2019/07/18 07:48 EDT  -99.99 -99.99    1   50    3 -99.9 -99.9 -999.9 -9.9 -9.999 -99.9 -99.99 -9.99
2019/07/18 07:54 EDT  -99.99 -99.99    1   54    2 -99.9 -99.9 -999.9 -9.9 -9.999 -99.9 -99.99 -9.99
2019/07/18 08:00 EDT  -99.99 -99.99    3   92    4 -99.9 -99.9 -999.9 -9.9 -9.999 -99.9 -99.99 -9.99
2019/07/18 08:06 EDT  -99.99 -99.99    4   92    6 -99.9 -99.9 -999.9 -9.9 -9.999 -99.9 -99.99 -9.99
2019/07/18 08:12 EDT  -99.99 -99.99    1  112    2 -99.9 -99.9 -999.9 -9.9 -9.999 -99.9 -99.99 -9.99
2019/07/18 08:18 EDT  -99.99 -99.99    2  102    3 -99.9 -99.9 -999.9 -9.9 -9.999 -99.9 -99.99 -9.99
2019/07/18 08:24 EDT  -99.99 -99.99    2  109    2 -99.9 -99.9 -999.9 -9.9 -9.999 -99.9 -99.99 -9.99
2019/07/18 08:30 EDT  -99.99 -99.99    3  106    4 -99.9 -99.9 -999.9 -9.9 -9.999 -99.9 -99.99 -9.99
2019/07/18 08:36 EDT  -99.99 -99.99    3   91    4 -99.9 -99.9 -999.9 -9.9 -9.999 -99.9 -99.99 -9.99
2019/07/18 08:42 EDT  -99.99 -99.99    3   80    4 -99.9 -99.9 -999.9 -9.9 -9.999 -99.9 -99.99 -9.99
2019/07/18 08:48 EDT  -99.99 -99.99    3  119    4 -99.9 -99.9 -999.9 -9.9 -9.999 -99.9 -99.99 -9.99
2019/07/18 08:54 EDT  -99.99 -99.99    3   73    5 -99.9 -99.9 -999.9 -9.9 -9.999 -99.9 -99.99 -9.99
2019/07/18 09:00 EDT  -99.99 -99.99    3   80    4 -99.9 -99.9 -999.9 -9.9 -9.999 -99.9 -99.99 -9.99
2019/07/18 09:06 EDT  -99.99 -99.99    2   77    4 -99.9 -99.9 -999.9 -9.9 -9.999 -99.9 -99.99 -9.99
2019/07/18 09:12 EDT  -99.99 -99.99    3   60    4 -99.9 -99.9 -999.9 -9.9 -9.999 -99.9 -99.99 -9.99
2019/07/18 09:18 EDT  -99.99 -99.99    3   75    4 -99.9 -99.9 -999.9 -9.9 -9.999 -99.9 -99.99 -9.99
2019/07/18 09:24 EDT  -99.99 -99.99    2  118    3 -99.9 -99.9 -999.9 -9.9 -9.999 -99.9 -99.99 -9.99
2019/07/18 09:30 EDT  -99.99 -99.99    2   77    3 -99.9 -99.9 -999.9 -9.9 -9.999 -99.9 -99.99 -9.99
2019/07/18 09:36 EDT  -99.99 -99.99    2   86    3 -99.9 -99.9 -999.9 -9.9 -9.999 -99.9 -99.99 -9.99
2019/07/18 09:42 EDT  -99.99 -99.99    4   97    5 -99.9 -99.9 -999.9 -9.9 -9.999 -99.9 -99.99 -9.99
2019/07/18 09:48 EDT  -99.99 -99.99    2   80    4 -99.9 -99.9 -999.9 -9.9 -9.999 -99.9 -99.99 -9.99
2019/07/18 09:54 EDT  -99.99 -99.99    3   94    4 -99.9 -99.9 -999.9 -9.9 -9.999 -99.9 -99.99 -9.99
2019/07/18 10:00 EDT  -99.99 -99.99    3  126    3 -99.9 -99.9 -999.9 -9.9 -9.999 -99.9 -99.99 -9.99
2019/07/18 10:06 EDT  -99.99 -99.99    2  113    3 -99.9 -99.9 -999.9 -9.9 -9.999 -99.9 -99.99 -9.99
2019/07/18 10:12 EDT  -99.99 -99.99    3  126    4 -99.9 -99.9 -999.9 -9.9 -9.999 -99.9 -99.99 -9.99
2019/07/18 10:18 EDT  -99.99 -99.99    3  117    4 -99.9 -99.9 -999.9 -9.9 -9.999 -99.9 -99.99 -9.99
2019/07/18 10:24 EDT  -99.99 -99.99    1   79    2 -99.9 -99.9 -999.9 -9.9 -9.999 -99.9 -99.99 -9.99
2019/07/18 10:30 EDT  -99.99 -99.99    3   83    4 -99.9 -99.9 -999.9 -9.9 -9.999 -99.9 -99.99 -9.99
2019/07/18 10:36 EDT  -99.99 -99.99    2   83    4 -99.9 -99.9 -999.9 -9.9 -9.999 -99.9 -99.99 -9.99
2019/07/18 10:42 EDT  -99.99 -99.99    1   88    2 -99.9 -99.9 -999.9 -9.9 -9.999 -99.9 -99.99 -9.99
2019/07/18 10:48 EDT  -99.99 -99.99    3  134    4 -99.9 -99.9 -999.9 -9.9 -9.999 -99.9 -99.99 -9.99
2019/07/18 10:54 EDT  -99.99 -99.99    2  135    4 -99.9 -99.9 -999.9 -9.9 -9.999 -99.9 -99.99 -9.99
2019/07/18 11:00 EDT  -99.99 -99.99    3  170    5 -99.9 -99.9 -999.9 -9.9 -9.999 -99.9 -99.99 -9.99
2019/07/18 11:06 EDT  -99.99 -99.99    5  174    6 -99.9 -99.9 -999.9 -9.9 -9.999 -99.9 -99.99 -9.99
2019/07/18 11:12 EDT  -99.99 -99.99    4  175    5 -99.9 -99.9 -999.9 -9.9 -9.999 -99.9 -99.99 -9.99
2019/07/18 11:18 EDT  -99.99 -99.99    5  174    7 -99.9 -99.9 -999.9 -9.9 -9.999 -99.9 -99.99 -9.99
2019/07/18 11:24 EDT  -99.99 -99.99    6  174    8 -99.9 -99.9 -999.9 -9.9 -9.999 -99.9 -99.99 -9.99
2019/07/18 11:30 EDT  -99.99 -99.99    7  177    8 -99.9 -99.9 -999.9 -9.9 -9.999 -99.9 -99.99 -9.99
2019/07/18 11:36 EDT  -99.99 -99.99    4  173    8 -99.9 -99.9 -999.9 -9.9 -9.999 -99.9 -99.99 -9.99
2019/07/18 11:42 EDT  -99.99 -99.99    6  170    7 -99.9 -99.9 -999.9 -9.9 -9.999 -99.9 -99.99 -9.99
2019/07/18 11:48 EDT  -99.99 -99.99    6  177    8 -99.9 -99.9 -999.9 -9.9 -9.999 -99.9 -99.99 -9.99
2019/07/18 11:54 EDT  -99.99 -99.99    6  175    7 -99.9 -99.9 -999.9 -9.9 -9.999 -99.9 -99.99 -9.99
2019/07/18 12:00 EDT  -99.99 -99.99    6  174    7 -99.9 -99.9 -999.9 -9.9 -9.999 -99.9 -99.99 -9.99
2019/07/18 12:06 EDT  -99.99 -99.99    5  173    6 -99.9 -99.9 -999.9 -9.9 -9.999 -99.9 -99.99 -9.99
2019/07/18 12:12 EDT  -99.99 -99.99    5  162    7 -99.9 -99.9 -999.9 -9.9 -9.999 -99.9 -99.99 -9.99
2019/07/18 12:18 EDT  -99.99 -99.99    4  164    7 -99.9 -99.9 -999.9 -9.9 -9.999 -99.9 -99.99 -9.99
2019/07/18 12:24 EDT  -99.99 -99.99    6  175    7 -99.9 -99.9 -999.9 -9.9 -9.999 -99.9 -99.99 -9.99
2019/07/18 12:30 EDT  -99.99 -99.99    5  173    7 -99.9 -99.9 -999.9 -9.9 -9.999 -99.9 -99.99 -9.99
2019/07/18 12:36 EDT  -99.99 -99.99    5  168    8 -99.9 -99.9 -999.9 -9.9 -9.999 -99.9 -99.99 -9.99
2019/07/18 12:42 EDT  -99.99 -99.99    5  169    7 -99.9 -99.9 -999.9 -9.9 -9.999 -99.9 -99.99 -9.99
2019/07/18 12:48 EDT  -99.99 -99.99    2  164    5 -99.9 -99.9 -999.9 -9.9 -9.999 -99.9 -99.99 -9.99
2019/07/18 12:54 EDT  -99.99 -99.99    5  175    6 -99.9 -99.9 -999.9 -9.9 -9.999 -99.9 -99.99 -9.99
2019/07/18 13:00 EDT  -99.99 -99.99    5  168    6 -99.9 -99.9 -999.9 -9.9 -9.999 -99.9 -99.99 -9.99
2019/07/18 13:06 EDT  -99.99 -99.99    4  181    6 -99.9 -99.9 -999.9 -9.9 -9.999 -99.9 -99.99 -9.99
2019/07/18 13:12 EDT  -99.99 -99.99    4  173    5 -99.9 -99.9 -999.9 -9.9 -9.999 -99.9 -99.99 -9.99
2019/07/18 13:18 EDT  -99.99 -99.99    3  180    5 -99.9 -99.9 -999.9 -9.9 -9.999 -99.9 -99.99 -9.99
2019/07/18 13:24 EDT  -99.99 -99.99    4  205    6 -99.9 -99.9 -999.9 -9.9 -9.999 -99.9 -99.99 -9.99
2019/07/18 13:30 EDT  -99.99 -99.99    5  254    6 -99.9 -99.9 -999.9 -9.9 -9.999 -99.9 -99.99 -9.99
2019/07/18 13:36 EDT  -99.99 -99.99    5  207    7 -99.9 -99.9 -999.9 -9.9 -9.999 -99.9 -99.99 -9.99
2019/07/18 13:42 EDT  -99.99 -99.99    2  170    4 -99.9 -99.9 -999.9 -9.9 -9.999 -99.9 -99.99 -9.99
2019/07/18 13:48 EDT  -99.99 -99.99    4  228    6 -99.9 -99.9 -999.9 -9.9 -9.999 -99.9 -99.99 -9.99
2019/07/18 13:54 EDT  -99.99 -99.99    4  284    7 -99.9 -99.9 -999.9 -9.9 -9.999 -99.9 -99.99 -9.99
2019/07/18 14:00 EDT  -99.99 -99.99    2  262    5 -99.9 -99.9 -999.9 -9.9 -9.999 -99.9 -99.99 -9.99
2019/07/18 14:06 EDT  -99.99 -99.99    3  209    6 -99.9 -99.9 -999.9 -9.9 -9.999 -99.9 -99.99 -9.99
2019/07/18 14:12 EDT  -99.99 -99.99    4  176    7 -99.9 -99.9 -999.9 -9.9 -9.999 -99.9 -99.99 -9.99
2019/07/18 14:18 EDT  -99.99 -99.99    3  198    5 -99.9 -99.9 -999.9 -9.9 -9.999 -99.9 -99.99 -9.99
2019/07/18 14:24 EDT  -99.99 -99.99    3  226    6 -99.9 -99.9 -999.9 -9.9 -9.999 -99.9 -99.99 -9.99
2019/07/18 14:30 EDT  -99.99 -99.99    4  197    6 -99.9 -99.9 -999.9 -9.9 -9.999 -99.9 -99.99 -9.99
2019/07/18 14:36 EDT  -99.99 -99.99    2  291    4 -99.9 -99.9 -999.9 -9.9 -9.999 -99.9 -99.99 -9.99
2019/07/18 14:42 EDT  -99.99 -99.99    2  194    4 -99.9 -99.9 -999.9 -9.9 -9.999 -99.9 -99.99 -9.99
2019/07/18 14:48 EDT  -99.99 -99.99    4  200    9 -99.9 -99.9 -999.9 -9.9 -9.999 -99.9 -99.99 -9.99
2019/07/18 14:54 EDT  -99.99 -99.99    4  230    8 -99.9 -99.9 -999.9 -9.9 -9.999 -99.9 -99.99 -9.99
2019/07/18 15:00 EDT  -99.99 -99.99    4  187    6 -99.9 -99.9 -999.9 -9.9 -9.999 -99.9 -99.99 -9.99
2019/07/18 15:06 EDT  -99.99 -99.99    6  209    9 -99.9 -99.9 -999.9 -9.9 -9.999 -99.9 -99.99 -9.99
2019/07/18 15:12 EDT  -99.99 -99.99    4  215    8 -99.9 -99.9 -999.9 -9.9 -9.999 -99.9 -99.99 -9.99
2019/07/18 15:18 EDT  -99.99 -99.99    5  234   10 -99.9 -99.9 -999.9 -9.9 -9.999 -99.9 -99.99 -9.99
2019/07/18 15:24 EDT  -99.99 -99.99    5  214    7 -99.9 -99.9 -999.9 -9.9 -9.999 -99.9 -99.99 -9.99
2019/07/18 15:30 EDT  -99.99 -99.99    3  200    7 -99.9 -99.9 -999.9 -9.9 -9.999 -99.9 -99.99 -9.99
2019/07/18 15:36 EDT  -99.99 -99.99    4  208    7 -99.9 -99.9 -999.9 -9.9 -9.999 -99.9 -99.99 -9.99
2019/07/18 15:42 EDT  -99.99 -99.99    5  220    7 -99.9 -99.9 -999.9 -9.9 -9.999 -99.9 -99.99 -9.99
2019/07/18 15:48 EDT  -99.99 -99.99    4  224   10 -99.9 -99.9 -999.9 -9.9 -9.999 -99.9 -99.99 -9.99
2019/07/18 15:54 EDT  -99.99 -99.99    4  206    8 -99.9 -99.9 -999.9 -9.9 -9.999 -99.9 -99.99 -9.99
2019/07/18 16:00 EDT  -99.99 -99.99    2  222    6 -99.9 -99.9 -999.9 -9.9 -9.999 -99.9 -99.99 -9.99
2019/07/18 16:06 EDT  -99.99 -99.99    7  105   12 -99.9 -99.9 -999.9 -9.9 -9.999 -99.9 -99.99 -9.99
2019/07/18 16:12 EDT  -99.99 -99.99    9   81   14 -99.9 -99.9 -999.9 -9.9 -9.999 -99.9 -99.99 -9.99
2019/07/18 16:18 EDT  -99.99 -99.99    6   81    9 -99.9 -99.9 -999.9 -9.9 -9.999 -99.9 -99.99 -9.99
2019/07/18 16:24 EDT  -99.99 -99.99    8   45   11 -99.9 -99.9 -999.9 -9.9 -9.999 -99.9 -99.99 -9.99
2019/07/18 16:30 EDT  -99.99 -99.99    4   81    7 -99.9 -99.9 -999.9 -9.9 -9.999 -99.9 -99.99 -9.99
2019/07/18 16:36 EDT  -99.99 -99.99    2  139    3 -99.9 -99.9 -999.9 -9.9 -9.999 -99.9 -99.99 -9.99
2019/07/18 16:42 EDT  -99.99 -99.99    0  161    2 -99.9 -99.9 -999.9 -9.9 -9.999 -99.9 -99.99 -9.99
2019/07/18 16:48 EDT  -99.99 -99.99    2  169    3 -99.9 -99.9 -999.9 -9.9 -9.999 -99.9 -99.99 -9.99
2019/07/18 16:54 EDT  -99.99 -99.99    8  170   20 -99.9 -99.9 -999.9 -9.9 -9.999 -99.9 -99.99 -9.99
2019/07/18 17:00 EDT  -99.99 -99.99   16  161   24 -99.9 -99.9 -999.9 -9.9 -9.999 -99.9 -99.99 -9.99
2019/07/18 17:06 EDT  -99.99 -99.99   15  167   21 -99.9 -99.9 -999.9 -9.9 -9.999 -99.9 -99.99 -9.99
2019/07/18 17:12 EDT  -99.99 -99.99   10  176   16 -99.9 -99.9 -999.9 -9.9 -9.999 -99.9 -99.99 -9.99
2019/07/18 17:18 EDT  -99.99 -99.99   13  168   18 -99.9 -99.9 -999.9 -9.9 -9.999 -99.9 -99.99 -9.99
2019/07/18 17:24 EDT  -99.99 -99.99   10  169   17 -99.9 -99.9 -999.9 -9.9 -9.999 -99.9 -99.99 -9.99
2019/07/18 17:30 EDT  -99.99 -99.99    9  116   11 -99.9 -99.9 -999.9 -9.9 -9.999 -99.9 -99.99 -9.99
2019/07/18 17:36 EDT  -99.99 -99.99    8   71   11 -99.9 -99.9 -999.9 -9.9 -9.999 -99.9 -99.99 -9.99
2019/07/18 17:42 EDT  -99.99 -99.99    3  129    6 -99.9 -99.9 -999.9 -9.9 -9.999 -99.9 -99.99 -9.99
2019/07/18 17:48 EDT  -99.99 -99.99    6  130   10 -99.9 -99.9 -999.9 -9.9 -9.999 -99.9 -99.99 -9.99
2019/07/18 17:54 EDT  -99.99 -99.99    4  132    7 -99.9 -99.9 -999.9 -9.9 -9.999 -99.9 -99.99 -9.99
2019/07/18 18:00 EDT  -99.99 -99.99    2  135    4 -99.9 -99.9 -999.9 -9.9 -9.999 -99.9 -99.99 -9.99
2019/07/18 18:06 EDT  -99.99 -99.99    3  135    5 -99.9 -99.9 -999.9 -9.9 -9.999 -99.9 -99.99 -9.99
2019/07/18 18:12 EDT  -99.99 -99.99    5   83    7 -99.9 -99.9 -999.9 -9.9 -9.999 -99.9 -99.99 -9.99
2019/07/18 18:18 EDT  -99.99 -99.99    3  113    4 -99.9 -99.9 -999.9 -9.9 -9.999 -99.9 -99.99 -9.99
2019/07/18 18:24 EDT  -99.99 -99.99    4  103    5 -99.9 -99.9 -999.9 -9.9 -9.999 -99.9 -99.99 -9.99
2019/07/18 18:30 EDT  -99.99 -99.99    4  127    5 -99.9 -99.9 -999.9 -9.9 -9.999 -99.9 -99.99 -9.99
2019/07/18 18:36 EDT  -99.99 -99.99    3  107    4 -99.9 -99.9 -999.9 -9.9 -9.999 -99.9 -99.99 -9.99
2019/07/18 18:42 EDT  -99.99 -99.99    2   47    4 -99.9 -99.9 -999.9 -9.9 -9.999 -99.9 -99.99 -9.99
2019/07/18 18:48 EDT  -99.99 -99.99    1   73    3 -99.9 -99.9 -999.9 -9.9 -9.999 -99.9 -99.99 -9.99
2019/07/18 18:54 EDT  -99.99 -99.99    1    1    1 -99.9 -99.9 -999.9 -9.9 -9.999 -99.9 -99.99 -9.99
2019/07/18 19:00 EDT  -99.99 -99.99    3   96    4 -99.9 -99.9 -999.9 -9.9 -9.999 -99.9 -99.99 -9.99
2019/07/18 19:06 EDT  -99.99 -99.99    2  138    3 -99.9 -99.9 -999.9 -9.9 -9.999 -99.9 -99.99 -9.99
2019/07/18 19:12 EDT  -99.99 -99.99    3  108    3 -99.9 -99.9 -999.9 -9.9 -9.999 -99.9 -99.99 -9.99
2019/07/18 19:18 EDT  -99.99 -99.99    3   28    4 -99.9 -99.9 -999.9 -9.9 -9.999 -99.9 -99.99 -9.99
2019/07/18 19:24 EDT  -99.99 -99.99    3   15    3 -99.9 -99.9 -999.9 -9.9 -9.999 -99.9 -99.99 -9.99
2019/07/18 19:30 EDT  -99.99 -99.99    2   42    3 -99.9 -99.9 -999.9 -9.9 -9.999 -99.9 -99.99 -9.99
2019/07/18 19:36 EDT  -99.99 -99.99    3   64    6 -99.9 -99.9 -999.9 -9.9 -9.999 -99.9 -99.99 -9.99
2019/07/18 19:42 EDT  -99.99 -99.99    4  105    6 -99.9 -99.9 -999.9 -9.9 -9.999 -99.9 -99.99 -9.99
2019/07/18 19:48 EDT  -99.99 -99.99    3   79    6 -99.9 -99.9 -999.9 -9.9 -9.999 -99.9 -99.99 -9.99
2019/07/18 19:54 EDT  -99.99 -99.99    4   45    6 -99.9 -99.9 -999.9 -9.9 -9.999 -99.9 -99.99 -9.99
2019/07/18 20:00 EDT  -99.99 -99.99    3   55    5 -99.9 -99.9 -999.9 -9.9 -9.999 -99.9 -99.99 -9.99
2019/07/18 20:06 EDT  -99.99 -99.99    4   84    6 -99.9 -99.9 -999.9 -9.9 -9.999 -99.9 -99.99 -9.99
2019/07/18 20:12 EDT  -99.99 -99.99    3   60    5 -99.9 -99.9 -999.9 -9.9 -9.999 -99.9 -99.99 -9.99
2019/07/18 20:18 EDT  -99.99 -99.99    2   50    3 -99.9 -99.9 -999.9 -9.9 -9.999 -99.9 -99.99 -9.99
2019/07/18 20:24 EDT  -99.99 -99.99    4   86    6 -99.9 -99.9 -999.9 -9.9 -9.999 -99.9 -99.99 -9.99
2019/07/18 20:30 EDT  -99.99 -99.99    2   89    4 -99.9 -99.9 -999.9 -9.9 -9.999 -99.9 -99.99 -9.99
2019/07/18 20:36 EDT  -99.99 -99.99    3  128    5 -99.9 -99.9 -999.9 -9.9 -9.999 -99.9 -99.99 -9.99
2019/07/18 20:42 EDT  -99.99 -99.99    4  119    4 -99.9 -99.9 -999.9 -9.9 -9.999 -99.9 -99.99 -9.99
2019/07/18 20:48 EDT  -99.99 -99.99    2  109    3 -99.9 -99.9 -999.9 -9.9 -9.999 -99.9 -99.99 -9.99
2019/07/18 20:54 EDT  -99.99 -99.99    2  118    3 -99.9 -99.9 -999.9 -9.9 -9.999 -99.9 -99.99 -9.99
2019/07/18 21:00 EDT  -99.99 -99.99    1  130    2 -99.9 -99.9 -999.9 -9.9 -9.999 -99.9 -99.99 -9.99
2019/07/18 21:06 EDT  -99.99 -99.99    1   55    2 -99.9 -99.9 -999.9 -9.9 -9.999 -99.9 -99.99 -9.99
2019/07/18 21:12 EDT  -99.99 -99.99    1   63    3 -99.9 -99.9 -999.9 -9.9 -9.999 -99.9 -99.99 -9.99
2019/07/18 21:18 EDT  -99.99 -99.99    0   95    1 -99.9 -99.9 -999.9 -9.9 -9.999 -99.9 -99.99 -9.99
2019/07/18 21:24 EDT  -99.99 -99.99    2  103    3 -99.9 -99.9 -999.9 -9.9 -9.999 -99.9 -99.99 -9.99
2019/07/18 21:30 EDT  -99.99 -99.99    2  116    3 -99.9 -99.9 -999.9 -9.9 -9.999 -99.9 -99.99 -9.99
2019/07/18 21:36 EDT  -99.99 -99.99    3  126    4 -99.9 -99.9 -999.9 -9.9 -9.999 -99.9 -99.99 -9.99
2019/07/18 21:42 EDT  -99.99 -99.99    3  107    4 -99.9 -99.9 -999.9 -9.9 -9.999 -99.9 -99.99 -9.99
2019/07/18 21:48 EDT  -99.99 -99.99    6   93    8 -99.9 -99.9 -999.9 -9.9 -9.999 -99.9 -99.99 -9.99
2019/07/18 21:54 EDT  -99.99 -99.99    6   95    8 -99.9 -99.9 -999.9 -9.9 -9.999 -99.9 -99.99 -9.99
2019/07/18 22:00 EDT  -99.99 -99.99    5   94    8 -99.9 -99.9 -999.9 -9.9 -9.999 -99.9 -99.99 -9.99
2019/07/18 22:06 EDT  -99.99 -99.99    4   43    6 -99.9 -99.9 -999.9 -9.9 -9.999 -99.9 -99.99 -9.99
2019/07/18 22:12 EDT  -99.99 -99.99    1   69    2 -99.9 -99.9 -999.9 -9.9 -9.999 -99.9 -99.99 -9.99
2019/07/18 22:18 EDT  -99.99 -99.99    4  116    5 -99.9 -99.9 -999.9 -9.9 -9.999 -99.9 -99.99 -9.99
2019/07/18 22:24 EDT  -99.99 -99.99    3  118    4 -99.9 -99.9 -999.9 -9.9 -9.999 -99.9 -99.99 -9.99
2019/07/18 22:30 EDT  -99.99 -99.99    3   89    4 -99.9 -99.9 -999.9 -9.9 -9.999 -99.9 -99.99 -9.99
2019/07/18 22:36 EDT  -99.99 -99.99    3   77    4 -99.9 -99.9 -999.9 -9.9 -9.999 -99.9 -99.99 -9.99
2019/07/18 22:42 EDT  -99.99 -99.99    0   59    1 -99.9 -99.9 -999.9 -9.9 -9.999 -99.9 -99.99 -9.99
2019/07/18 22:48 EDT  -99.99 -99.99    0    5    1 -99.9 -99.9 -999.9 -9.9 -9.999 -99.9 -99.99 -9.99
2019/07/18 22:54 EDT  -99.99 -99.99    2   33    3 -99.9 -99.9 -999.9 -9.9 -9.999 -99.9 -99.99 -9.99
2019/07/18 23:00 EDT  -99.99 -99.99    1   36    2 -99.9 -99.9 -999.9 -9.9 -9.999 -99.9 -99.99 -9.99
2019/07/18 23:06 EDT  -99.99 -99.99    1   94    3 -99.9 -99.9 -999.9 -9.9 -9.999 -99.9 -99.99 -9.99
2019/07/18 23:12 EDT  -99.99 -99.99    1   90    2 -99.9 -99.9 -999.9 -9.9 -9.999 -99.9 -99.99 -9.99
2019/07/18 23:18 EDT  -99.99 -99.99    2   97    2 -99.9 -99.9 -999.9 -9.9 -9.999 -99.9 -99.99 -9.99
2019/07/18 23:24 EDT  -99.99 -99.99    2   58    2 -99.9 -99.9 -999.9 -9.9 -9.999 -99.9 -99.99 -9.99
2019/07/18 23:30 EDT  -99.99 -99.99    1   78    2 -99.9 -99.9 -999.9 -9.9 -9.999 -99.9 -99.99 -9.99
2019/07/18 23:36 EDT  -99.99 -99.99    2   98    4 -99.9 -99.9 -999.9 -9.9 -9.999 -99.9 -99.99 -9.99
2019/07/18 23:42 EDT  -99.99 -99.99    3  124    5 -99.9 -99.9 -999.9 -9.9 -9.999 -99.9 -99.99 -9.99
2019/07/18 23:48 EDT  -99.99 -99.99    5  137    6 -99.9 -99.9 -999.9 -9.9 -9.999 -99.9 -99.99 -9.99
2019/07/18 23:54 EDT  -99.99 -99.99    5  125    6 -99.9 -99.9 -999.9 -9.9 -9.999 -99.9 -99.99 -9.99
2019/07/19 00:00 EDT  -99.99 -99.99    4  128    4 -99.9 -99.9 -999.9 -9.9 -9.999 -99.9 -99.99 -9.99
2019/07/19 00:06 EDT  -99.99 -99.99    2  141    3 -99.9 -99.9 -999.9 -9.9 -9.999 -99.9 -99.99 -9.99
2019/07/19 00:12 EDT  -99.99 -99.99    2  138    3 -99.9 -99.9 -999.9 -9.9 -9.999 -99.9 -99.99 -9.99
2019/07/19 00:18 EDT  -99.99 -99.99    1  116    2 -99.9 -99.9 -999.9 -9.9 -9.999 -99.9 -99.99 -9.99
2019/07/19 00:24 EDT  -99.99 -99.99    1  165    1 -99.9 -99.9 -999.9 -9.9 -9.999 -99.9 -99.99 -9.99
2019/07/19 00:30 EDT  -99.99 -99.99    0  125    1 -99.9 -99.9 -999.9 -9.9 -9.999 -99.9 -99.99 -9.99
2019/07/19 00:36 EDT  -99.99 -99.99    0   89    0 -99.9 -99.9 -999.9 -9.9 -9.999 -99.9 -99.99 -9.99
2019/07/19 00:42 EDT  -99.99 -99.99    0  297    1 -99.9 -99.9 -999.9 -9.9 -9.999 -99.9 -99.99 -9.99
2019/07/19 00:48 EDT  -99.99 -99.99    0  138    1 -99.9 -99.9 -999.9 -9.9 -9.999 -99.9 -99.99 -9.99
2019/07/19 00:54 EDT  -99.99 -99.99    1  179    1 -99.9 -99.9 -999.9 -9.9 -9.999 -99.9 -99.99 -9.99
2019/07/19 01:00 EDT  -99.99 -99.99    2  172    3 -99.9 -99.9 -999.9 -9.9 -9.999 -99.9 -99.99 -9.99
2019/07/19 01:06 EDT  -99.99 -99.99    0  150    2 -99.9 -99.9 -999.9 -9.9 -9.999 -99.9 -99.99 -9.99
2019/07/19 01:12 EDT  -99.99 -99.99    2  163    3 -99.9 -99.9 -999.9 -9.9 -9.999 -99.9 -99.99 -9.99
2019/07/19 01:18 EDT  -99.99 -99.99    2  174    3 -99.9 -99.9 -999.9 -9.9 -9.999 -99.9 -99.99 -9.99
2019/07/19 01:24 EDT  -99.99 -99.99    2  151    3 -99.9 -99.9 -999.9 -9.9 -9.999 -99.9 -99.99 -9.99
2019/07/19 01:30 EDT  -99.99 -99.99    3  134    3 -99.9 -99.9 -999.9 -9.9 -9.999 -99.9 -99.99 -9.99
2019/07/19 01:36 EDT  -99.99 -99.99    2   87    3 -99.9 -99.9 -999.9 -9.9 -9.999 -99.9 -99.99 -9.99
2019/07/19 01:42 EDT  -99.99 -99.99    3  104    4 -99.9 -99.9 -999.9 -9.9 -9.999 -99.9 -99.99 -9.99
2019/07/19 01:48 EDT  -99.99 -99.99    2   77    3 -99.9 -99.9 -999.9 -9.9 -9.999 -99.9 -99.99 -9.99
2019/07/19 01:54 EDT  -99.99 -99.99    3   93    4 -99.9 -99.9 -999.9 -9.9 -9.999 -99.9 -99.99 -9.99
2019/07/19 02:00 EDT  -99.99 -99.99    2   94    3 -99.9 -99.9 -999.9 -9.9 -9.999 -99.9 -99.99 -9.99
2019/07/19 02:06 EDT  -99.99 -99.99    3  109    4 -99.9 -99.9 -999.9 -9.9 -9.999 -99.9 -99.99 -9.99
2019/07/19 02:12 EDT  -99.99 -99.99    2  101    3 -99.9 -99.9 -999.9 -9.9 -9.999 -99.9 -99.99 -9.99
2019/07/19 02:18 EDT  -99.99 -99.99    3  100    4 -99.9 -99.9 -999.9 -9.9 -9.999 -99.9 -99.99 -9.99
2019/07/19 02:24 EDT  -99.99 -99.99    2   74    3 -99.9 -99.9 -999.9 -9.9 -9.999 -99.9 -99.99 -9.99
2019/07/19 02:30 EDT  -99.99 -99.99    2   46    3 -99.9 -99.9 -999.9 -9.9 -9.999 -99.9 -99.99 -9.99
2019/07/19 02:36 EDT  -99.99 -99.99    2   55    3 -99.9 -99.9 -999.9 -9.9 -9.999 -99.9 -99.99 -9.99
2019/07/19 02:42 EDT  -99.99 -99.99    2   65    3 -99.9 -99.9 -999.9 -9.9 -9.999 -99.9 -99.99 -9.99
2019/07/19 02:48 EDT  -99.99 -99.99    1   94    2 -99.9 -99.9 -999.9 -9.9 -9.999 -99.9 -99.99 -9.99
2019/07/19 02:54 EDT  -99.99 -99.99    1   68    2 -99.9 -99.9 -999.9 -9.9 -9.999 -99.9 -99.99 -9.99
2019/07/19 03:00 EDT  -99.99 -99.99    2   88    3 -99.9 -99.9 -999.9 -9.9 -9.999 -99.9 -99.99 -9.99
2019/07/19 03:06 EDT  -99.99 -99.99    3   93    5 -99.9 -99.9 -999.9 -9.9 -9.999 -99.9 -99.99 -9.99
2019/07/19 03:12 EDT  -99.99 -99.99    2  101    3 -99.9 -99.9 -999.9 -9.9 -9.999 -99.9 -99.99 -9.99
2019/07/19 03:18 EDT  -99.99 -99.99    3   87    4 -99.9 -99.9 -999.9 -9.9 -9.999 -99.9 -99.99 -9.99
2019/07/19 03:24 EDT  -99.99 -99.99    3   97    4 -99.9 -99.9 -999.9 -9.9 -9.999 -99.9 -99.99 -9.99
2019/07/19 03:30 EDT  -99.99 -99.99    2   71    3 -99.9 -99.9 -999.9 -9.9 -9.999 -99.9 -99.99 -9.99
2019/07/19 03:36 EDT  -99.99 -99.99    2   43    3 -99.9 -99.9 -999.9 -9.9 -9.999 -99.9 -99.99 -9.99
2019/07/19 03:42 EDT  -99.99 -99.99    2   68    3 -99.9 -99.9 -999.9 -9.9 -9.999 -99.9 -99.99 -9.99
2019/07/19 03:48 EDT  -99.99 -99.99    3   96    5 -99.9 -99.9 -999.9 -9.9 -9.999 -99.9 -99.99 -9.99
2019/07/19 03:54 EDT  -99.99 -99.99    3   98    4 -99.9 -99.9 -999.9 -9.9 -9.999 -99.9 -99.99 -9.99
2019/07/19 04:00 EDT  -99.99 -99.99    2   57    3 -99.9 -99.9 -999.9 -9.9 -9.999 -99.9 -99.99 -9.99
2019/07/19 04:06 EDT  -99.99 -99.99    2   43    3 -99.9 -99.9 -999.9 -9.9 -9.999 -99.9 -99.99 -9.99
2019/07/19 04:12 EDT  -99.99 -99.99    2   37    3 -99.9 -99.9 -999.9 -9.9 -9.999 -99.9 -99.99 -9.99
2019/07/19 04:18 EDT  -99.99 -99.99    2   52    3 -99.9 -99.9 -999.9 -9.9 -9.999 -99.9 -99.99 -9.99
2019/07/19 04:24 EDT  -99.99 -99.99    2   56    3 -99.9 -99.9 -999.9 -9.9 -9.999 -99.9 -99.99 -9.99
2019/07/19 04:30 EDT  -99.99 -99.99    2  103    3 -99.9 -99.9 -999.9 -9.9 -9.999 -99.9 -99.99 -9.99
2019/07/19 04:36 EDT  -99.99 -99.99    3   82    4 -99.9 -99.9 -999.9 -9.9 -9.999 -99.9 -99.99 -9.99
2019/07/19 04:42 EDT  -99.99 -99.99    3   96    4 -99.9 -99.9 -999.9 -9.9 -9.999 -99.9 -99.99 -9.99
2019/07/19 04:48 EDT  -99.99 -99.99    4  102    5 -99.9 -99.9 -999.9 -9.9 -9.999 -99.9 -99.99 -9.99
2019/07/19 04:54 EDT  -99.99 -99.99    3   94    4 -99.9 -99.9 -999.9 -9.9 -9.999 -99.9 -99.99 -9.99
2019/07/19 05:00 EDT  -99.99 -99.99    3   92    5 -99.9 -99.9 -999.9 -9.9 -9.999 -99.9 -99.99 -9.99
2019/07/19 05:06 EDT  -99.99 -99.99    2   77    3 -99.9 -99.9 -999.9 -9.9 -9.999 -99.9 -99.99 -9.99
2019/07/19 05:12 EDT  -99.99 -99.99    2  109    3 -99.9 -99.9 -999.9 -9.9 -9.999 -99.9 -99.99 -9.99
2019/07/19 05:18 EDT  -99.99 -99.99    4  120    5 -99.9 -99.9 -999.9 -9.9 -9.999 -99.9 -99.99 -9.99
2019/07/19 05:24 EDT  -99.99 -99.99    6  103    7 -99.9 -99.9 -999.9 -9.9 -9.999 -99.9 -99.99 -9.99
2019/07/19 05:30 EDT  -99.99 -99.99    5  109    6 -99.9 -99.9 -999.9 -9.9 -9.999 -99.9 -99.99 -9.99
2019/07/19 05:36 EDT  -99.99 -99.99    3   94    4 -99.9 -99.9 -999.9 -9.9 -9.999 -99.9 -99.99 -9.99
2019/07/19 05:42 EDT  -99.99 -99.99    4  111    5 -99.9 -99.9 -999.9 -9.9 -9.999 -99.9 -99.99 -9.99
2019/07/19 05:48 EDT  -99.99 -99.99    4  113    5 -99.9 -99.9 -999.9 -9.9 -9.999 -99.9 -99.99 -9.99
2019/07/19 05:54 EDT  -99.99 -99.99    5  111    7 -99.9 -99.9 -999.9 -9.9 -9.999 -99.9 -99.99 -9.99
2019/07/19 06:00 EDT  -99.99 -99.99    3  117    6 -99.9 -99.9 -999.9 -9.9 -9.999 -99.9 -99.99 -9.99
2019/07/19 06:06 EDT  -99.99 -99.99    3   96    5 -99.9 -99.9 -999.9 -9.9 -9.999 -99.9 -99.99 -9.99
2019/07/19 06:12 EDT  -99.99 -99.99    2  105    4 -99.9 -99.9 -999.9 -9.9 -9.999 -99.9 -99.99 -9.99
2019/07/19 06:18 EDT  -99.99 -99.99    3  101    5 -99.9 -99.9 -999.9 -9.9 -9.999 -99.9 -99.99 -9.99
2019/07/19 06:24 EDT  -99.99 -99.99    2   58    3 -99.9 -99.9 -999.9 -9.9 -9.999 -99.9 -99.99 -9.99
2019/07/19 06:30 EDT  -99.99 -99.99    2    1    3 -99.9 -99.9 -999.9 -9.9 -9.999 -99.9 -99.99 -9.99
2019/07/19 06:36 EDT  -99.99 -99.99    1   19    2 -99.9 -99.9 -999.9 -9.9 -9.999 -99.9 -99.99 -9.99
2019/07/19 06:42 EDT  -99.99 -99.99    1   47    2 -99.9 -99.9 -999.9 -9.9 -9.999 -99.9 -99.99 -9.99
2019/07/19 06:48 EDT  -99.99 -99.99    2   37    3 -99.9 -99.9 -999.9 -9.9 -9.999 -99.9 -99.99 -9.99
2019/07/19 06:54 EDT  -99.99 -99.99    1   31    2 -99.9 -99.9 -999.9 -9.9 -9.999 -99.9 -99.99 -9.99
2019/07/19 07:00 EDT  -99.99 -99.99    1   49    2 -99.9 -99.9 -999.9 -9.9 -9.999 -99.9 -99.99 -9.99
2019/07/19 07:06 EDT  -99.99 -99.99    1   66    2 -99.9 -99.9 -999.9 -9.9 -9.999 -99.9 -99.99 -9.99
2019/07/19 07:12 EDT  -99.99 -99.99    2   85    3 -99.9 -99.9 -999.9 -9.9 -9.999 -99.9 -99.99 -9.99
2019/07/19 07:18 EDT  -99.99 -99.99    2   84    3 -99.9 -99.9 -999.9 -9.9 -9.999 -99.9 -99.99 -9.99
2019/07/19 07:24 EDT  -99.99 -99.99    3   88    3 -99.9 -99.9 -999.9 -9.9 -9.999 -99.9 -99.99 -9.99
2019/07/19 07:30 EDT  -99.99 -99.99    2  103    3 -99.9 -99.9 -999.9 -9.9 -9.999 -99.9 -99.99 -9.99
2019/07/19 07:36 EDT  -99.99 -99.99    3   94    3 -99.9 -99.9 -999.9 -9.9 -9.999 -99.9 -99.99 -9.99
2019/07/19 07:42 EDT  -99.99 -99.99    4   89    5 -99.9 -99.9 -999.9 -9.9 -9.999 -99.9 -99.99 -9.99
2019/07/19 07:48 EDT  -99.99 -99.99    2   92    3 -99.9 -99.9 -999.9 -9.9 -9.999 -99.9 -99.99 -9.99
2019/07/19 07:54 EDT  -99.99 -99.99    3  114    3 -99.9 -99.9 -999.9 -9.9 -9.999 -99.9 -99.99 -9.99
2019/07/19 08:00 EDT  -99.99 -99.99    2  117    3 -99.9 -99.9 -999.9 -9.9 -9.999 -99.9 -99.99 -9.99
2019/07/19 08:06 EDT  -99.99 -99.99    2  118    3 -99.9 -99.9 -999.9 -9.9 -9.999 -99.9 -99.99 -9.99
2019/07/19 08:12 EDT  -99.99 -99.99    0  132    1 -99.9 -99.9 -999.9 -9.9 -9.999 -99.9 -99.99 -9.99
2019/07/19 08:18 EDT  -99.99 -99.99    1   83    2 -99.9 -99.9 -999.9 -9.9 -9.999 -99.9 -99.99 -9.99
2019/07/19 08:24 EDT  -99.99 -99.99    1  138    2 -99.9 -99.9 -999.9 -9.9 -9.999 -99.9 -99.99 -9.99
2019/07/19 08:30 EDT  -99.99 -99.99    1  125    1 -99.9 -99.9 -999.9 -9.9 -9.999 -99.9 -99.99 -9.99
2019/07/19 08:36 EDT  -99.99 -99.99    1  141    2 -99.9 -99.9 -999.9 -9.9 -9.999 -99.9 -99.99 -9.99
2019/07/19 08:42 EDT  -99.99 -99.99    1  114    2 -99.9 -99.9 -999.9 -9.9 -9.999 -99.9 -99.99 -9.99
2019/07/19 08:48 EDT  -99.99 -99.99    2  111    3 -99.9 -99.9 -999.9 -9.9 -9.999 -99.9 -99.99 -9.99
2019/07/19 08:54 EDT  -99.99 -99.99    1  137    2 -99.9 -99.9 -999.9 -9.9 -9.999 -99.9 -99.99 -9.99
2019/07/19 09:00 EDT  -99.99 -99.99    2  171    4 -99.9 -99.9 -999.9 -9.9 -9.999 -99.9 -99.99 -9.99
2019/07/19 09:06 EDT  -99.99 -99.99    3  178    4 -99.9 -99.9 -999.9 -9.9 -9.999 -99.9 -99.99 -9.99
2019/07/19 09:12 EDT  -99.99 -99.99    3  179    4 -99.9 -99.9 -999.9 -9.9 -9.999 -99.9 -99.99 -9.99
2019/07/19 09:18 EDT  -99.99 -99.99    4  176    7 -99.9 -99.9 -999.9 -9.9 -9.999 -99.9 -99.99 -9.99
2019/07/19 09:24 EDT  -99.99 -99.99    6  167    8 -99.9 -99.9 -999.9 -9.9 -9.999 -99.9 -99.99 -9.99
2019/07/19 09:30 EDT  -99.99 -99.99    3  164    6 -99.9 -99.9 -999.9 -9.9 -9.999 -99.9 -99.99 -9.99
2019/07/19 09:36 EDT  -99.99 -99.99    6  161    8 -99.9 -99.9 -999.9 -9.9 -9.999 -99.9 -99.99 -9.99
2019/07/19 09:42 EDT  -99.99 -99.99    5  181    7 -99.9 -99.9 -999.9 -9.9 -9.999 -99.9 -99.99 -9.99
2019/07/19 09:48 EDT  -99.99 -99.99    5  174    7 -99.9 -99.9 -999.9 -9.9 -9.999 -99.9 -99.99 -9.99
2019/07/19 09:54 EDT  -99.99 -99.99    6  162    8 -99.9 -99.9 -999.9 -9.9 -9.999 -99.9 -99.99 -9.99
2019/07/19 10:00 EDT  -99.99 -99.99 -999 -999 -999 -99.9 -99.9 -999.9 -9.9 -9.999 -99.9 -99.99 -9.99
2019/07/19 10:06 EDT  -99.99 -99.99    4  177    6 -99.9 -99.9 -999.9 -9.9 -9.999 -99.9 -99.99 -9.99
2019/07/19 10:12 EDT  -99.99 -99.99    6  172    8 -99.9 -99.9 -999.9 -9.9 -9.999 -99.9 -99.99 -9.99
2019/07/19 10:18 EDT  -99.99 -99.99    5  174    7 -99.9 -99.9 -999.9 -9.9 -9.999 -99.9 -99.99 -9.99
2019/07/19 10:24 EDT  -99.99 -99.99    6  184    8 -99.9 -99.9 -999.9 -9.9 -9.999 -99.9 -99.99 -9.99
2019/07/19 10:30 EDT  -99.99 -99.99    4  175    6 -99.9 -99.9 -999.9 -9.9 -9.999 -99.9 -99.99 -9.99
2019/07/19 10:36 EDT  -99.99 -99.99    5  175    8 -99.9 -99.9 -999.9 -9.9 -9.999 -99.9 -99.99 -9.99
2019/07/19 10:42 EDT  -99.99 -99.99    5  163    7 -99.9 -99.9 -999.9 -9.9 -9.999 -99.9 -99.99 -9.99
2019/07/19 10:48 EDT  -99.99 -99.99    6  169    8 -99.9 -99.9 -999.9 -9.9 -9.999 -99.9 -99.99 -9.99
2019/07/19 10:54 EDT  -99.99 -99.99    5  179    6 -99.9 -99.9 -999.9 -9.9 -9.999 -99.9 -99.99 -9.99
2019/07/19 11:00 EDT  -99.99 -99.99    2  162    5 -99.9 -99.9 -999.9 -9.9 -9.999 -99.9 -99.99 -9.99
2019/07/19 11:06 EDT  -99.99 -99.99    5  180    7 -99.9 -99.9 -999.9 -9.9 -9.999 -99.9 -99.99 -9.99
2019/07/19 11:12 EDT  -99.99 -99.99    5  175    7 -99.9 -99.9 -999.9 -9.9 -9.999 -99.9 -99.99 -9.99
2019/07/19 11:18 EDT  -99.99 -99.99    4  180    6 -99.9 -99.9 -999.9 -9.9 -9.999 -99.9 -99.99 -9.99
2019/07/19 11:24 EDT  -99.99 -99.99    5  171    7 -99.9 -99.9 -999.9 -9.9 -9.999 -99.9 -99.99 -9.99
2019/07/19 11:30 EDT  -99.99 -99.99    5  180    6 -99.9 -99.9 -999.9 -9.9 -9.999 -99.9 -99.99 -9.99
2019/07/19 11:36 EDT  -99.99 -99.99    4  187    7 -99.9 -99.9 -999.9 -9.9 -9.999 -99.9 -99.99 -9.99
2019/07/19 11:42 EDT  -99.99 -99.99    4  189    5 -99.9 -99.9 -999.9 -9.9 -9.999 -99.9 -99.99 -9.99
2019/07/19 11:48 EDT  -99.99 -99.99    5  173    6 -99.9 -99.9 -999.9 -9.9 -9.999 -99.9 -99.99 -9.99
2019/07/19 11:54 EDT  -99.99 -99.99    5  172    6 -99.9 -99.9 -999.9 -9.9 -9.999 -99.9 -99.99 -9.99
2019/07/19 12:00 EDT  -99.99 -99.99    5  180    7 -99.9 -99.9 -999.9 -9.9 -9.999 -99.9 -99.99 -9.99
2019/07/19 12:06 EDT  -99.99 -99.99    3  170    5 -99.9 -99.9 -999.9 -9.9 -9.999 -99.9 -99.99 -9.99
2019/07/19 12:12 EDT  -99.99 -99.99    4  164    7 -99.9 -99.9 -999.9 -9.9 -9.999 -99.9 -99.99 -9.99
2019/07/19 12:18 EDT  -99.99 -99.99    4  175    6 -99.9 -99.9 -999.9 -9.9 -9.999 -99.9 -99.99 -9.99
2019/07/19 12:24 EDT  -99.99 -99.99    2  194    4 -99.9 -99.9 -999.9 -9.9 -9.999 -99.9 -99.99 -9.99
2019/07/19 12:30 EDT  -99.99 -99.99    4  182    7 -99.9 -99.9 -999.9 -9.9 -9.999 -99.9 -99.99 -9.99
2019/07/19 12:36 EDT  -99.99 -99.99    6  171    6 -99.9 -99.9 -999.9 -9.9 -9.999 -99.9 -99.99 -9.99
2019/07/19 12:42 EDT  -99.99 -99.99    4  181    6 -99.9 -99.9 -999.9 -9.9 -9.999 -99.9 -99.99 -9.99
2019/07/19 12:48 EDT  -99.99 -99.99    5  172    7 -99.9 -99.9 -999.9 -9.9 -9.999 -99.9 -99.99 -9.99
2019/07/19 12:54 EDT  -99.99 -99.99    3  165    4 -99.9 -99.9 -999.9 -9.9 -9.999 -99.9 -99.99 -9.99
2019/07/19 13:00 EDT  -99.99 -99.99    2  139    3 -99.9 -99.9 -999.9 -9.9 -9.999 -99.9 -99.99 -9.99
2019/07/19 13:06 EDT  -99.99 -99.99    3  207    6 -99.9 -99.9 -999.9 -9.9 -9.999 -99.9 -99.99 -9.99
2019/07/19 13:12 EDT  -99.99 -99.99    5  224    6 -99.9 -99.9 -999.9 -9.9 -9.999 -99.9 -99.99 -9.99
2019/07/19 13:18 EDT  -99.99 -99.99    3  244    5 -99.9 -99.9 -999.9 -9.9 -9.999 -99.9 -99.99 -9.99
2019/07/19 13:24 EDT  -99.99 -99.99    4  223    6 -99.9 -99.9 -999.9 -9.9 -9.999 -99.9 -99.99 -9.99
2019/07/19 13:30 EDT  -99.99 -99.99    3  242    6 -99.9 -99.9 -999.9 -9.9 -9.999 -99.9 -99.99 -9.99
2019/07/19 13:36 EDT  -99.99 -99.99    5  226    8 -99.9 -99.9 -999.9 -9.9 -9.999 -99.9 -99.99 -9.99
2019/07/19 13:42 EDT  -99.99 -99.99    3  218    6 -99.9 -99.9 -999.9 -9.9 -9.999 -99.9 -99.99 -9.99
2019/07/19 13:48 EDT  -99.99 -99.99    3  194    6 -99.9 -99.9 -999.9 -9.9 -9.999 -99.9 -99.99 -9.99
2019/07/19 13:54 EDT  -99.99 -99.99    5  191    7 -99.9 -99.9 -999.9 -9.9 -9.999 -99.9 -99.99 -9.99
2019/07/19 14:00 EDT  -99.99 -99.99    6  229    9 -99.9 -99.9 -999.9 -9.9 -9.999 -99.9 -99.99 -9.99
2019/07/19 14:06 EDT  -99.99 -99.99    6  225    9 -99.9 -99.9 -999.9 -9.9 -9.999 -99.9 -99.99 -9.99
2019/07/19 14:12 EDT  -99.99 -99.99    4  202    7 -99.9 -99.9 -999.9 -9.9 -9.999 -99.9 -99.99 -9.99
2019/07/19 14:18 EDT  -99.99 -99.99    7  191   10 -99.9 -99.9 -999.9 -9.9 -9.999 -99.9 -99.99 -9.99
2019/07/19 14:24 EDT  -99.99 -99.99    5  204    7 -99.9 -99.9 -999.9 -9.9 -9.999 -99.9 -99.99 -9.99
2019/07/19 14:30 EDT  -99.99 -99.99    5  183    7 -99.9 -99.9 -999.9 -9.9 -9.999 -99.9 -99.99 -9.99
2019/07/19 14:36 EDT  -99.99 -99.99    6  176    8 -99.9 -99.9 -999.9 -9.9 -9.999 -99.9 -99.99 -9.99
2019/07/19 14:42 EDT  -99.99 -99.99    6  186    8 -99.9 -99.9 -999.9 -9.9 -9.999 -99.9 -99.99 -9.99
2019/07/19 14:48 EDT  -99.99 -99.99    4  186    7 -99.9 -99.9 -999.9 -9.9 -9.999 -99.9 -99.99 -9.99
2019/07/19 14:54 EDT  -99.99 -99.99    4  192    6 -99.9 -99.9 -999.9 -9.9 -9.999 -99.9 -99.99 -9.99
2019/07/19 15:00 EDT  -99.99 -99.99    4  206    6 -99.9 -99.9 -999.9 -9.9 -9.999 -99.9 -99.99 -9.99
2019/07/19 15:06 EDT  -99.99 -99.99    4  219    7 -99.9 -99.9 -999.9 -9.9 -9.999 -99.9 -99.99 -9.99
2019/07/19 15:12 EDT  -99.99 -99.99    4  181    6 -99.9 -99.9 -999.9 -9.9 -9.999 -99.9 -99.99 -9.99
2019/07/19 15:18 EDT  -99.99 -99.99    4  214    6 -99.9 -99.9 -999.9 -9.9 -9.999 -99.9 -99.99 -9.99
2019/07/19 15:24 EDT  -99.99 -99.99    4  196    6 -99.9 -99.9 -999.9 -9.9 -9.999 -99.9 -99.99 -9.99
2019/07/19 15:30 EDT  -99.99 -99.99    5  220    8 -99.9 -99.9 -999.9 -9.9 -9.999 -99.9 -99.99 -9.99
2019/07/19 15:36 EDT  -99.99 -99.99    4  204    7 -99.9 -99.9 -999.9 -9.9 -9.999 -99.9 -99.99 -9.99
2019/07/19 15:42 EDT  -99.99 -99.99    5  194    7 -99.9 -99.9 -999.9 -9.9 -9.999 -99.9 -99.99 -9.99
2019/07/19 15:48 EDT  -99.99 -99.99    4  175    6 -99.9 -99.9 -999.9 -9.9 -9.999 -99.9 -99.99 -9.99
2019/07/19 15:54 EDT  -99.99 -99.99    5  211    7 -99.9 -99.9 -999.9 -9.9 -9.999 -99.9 -99.99 -9.99
2019/07/19 16:00 EDT  -99.99 -99.99    3  194    4 -99.9 -99.9 -999.9 -9.9 -9.999 -99.9 -99.99 -9.99
2019/07/19 16:06 EDT  -99.99 -99.99    2  161    4 -99.9 -99.9 -999.9 -9.9 -9.999 -99.9 -99.99 -9.99
2019/07/19 16:12 EDT  -99.99 -99.99    3  245    7 -99.9 -99.9 -999.9 -9.9 -9.999 -99.9 -99.99 -9.99
2019/07/19 16:18 EDT  -99.99 -99.99    2  228    6 -99.9 -99.9 -999.9 -9.9 -9.999 -99.9 -99.99 -9.99
2019/07/19 16:24 EDT  -99.99 -99.99    2  270    5 -99.9 -99.9 -999.9 -9.9 -9.999 -99.9 -99.99 -9.99
2019/07/19 16:30 EDT  -99.99 -99.99    1  280    4 -99.9 -99.9 -999.9 -9.9 -9.999 -99.9 -99.99 -9.99
2019/07/19 16:36 EDT  -99.99 -99.99    5  336    7 -99.9 -99.9 -999.9 -9.9 -9.999 -99.9 -99.99 -9.99
2019/07/19 16:42 EDT  -99.99 -99.99    2  232    6 -99.9 -99.9 -999.9 -9.9 -9.999 -99.9 -99.99 -9.99
2019/07/19 16:48 EDT  -99.99 -99.99    5  345    8 -99.9 -99.9 -999.9 -9.9 -9.999 -99.9 -99.99 -9.99
2019/07/19 16:54 EDT  -99.99 -99.99    6  330   10 -99.9 -99.9 -999.9 -9.9 -9.999 -99.9 -99.99 -9.99
2019/07/19 17:00 EDT  -99.99 -99.99    4  328   11 -99.9 -99.9 -999.9 -9.9 -9.999 -99.9 -99.99 -9.99
2019/07/19 17:06 EDT  -99.99 -99.99    4  330    6 -99.9 -99.9 -999.9 -9.9 -9.999 -99.9 -99.99 -9.99
2019/07/19 17:12 EDT  -99.99 -99.99    2  328    5 -99.9 -99.9 -999.9 -9.9 -9.999 -99.9 -99.99 -9.99
2019/07/19 17:18 EDT  -99.99 -99.99    5  330    8 -99.9 -99.9 -999.9 -9.9 -9.999 -99.9 -99.99 -9.99
2019/07/19 17:24 EDT  -99.99 -99.99    5  324    9 -99.9 -99.9 -999.9 -9.9 -9.999 -99.9 -99.99 -9.99
2019/07/19 17:30 EDT  -99.99 -99.99    3  322    7 -99.9 -99.9 -999.9 -9.9 -9.999 -99.9 -99.99 -9.99
2019/07/19 17:36 EDT  -99.99 -99.99    5  300    9 -99.9 -99.9 -999.9 -9.9 -9.999 -99.9 -99.99 -9.99
2019/07/19 17:42 EDT  -99.99 -99.99    4  318    8 -99.9 -99.9 -999.9 -9.9 -9.999 -99.9 -99.99 -9.99
2019/07/19 17:48 EDT  -99.99 -99.99    4  327    6 -99.9 -99.9 -999.9 -9.9 -9.999 -99.9 -99.99 -9.99
2019/07/19 17:54 EDT  -99.99 -99.99    4  313    8 -99.9 -99.9 -999.9 -9.9 -9.999 -99.9 -99.99 -9.99
2019/07/19 18:00 EDT  -99.99 -99.99    5  326    9 -99.9 -99.9 -999.9 -9.9 -9.999 -99.9 -99.99 -9.99
2019/07/19 18:06 EDT  -99.99 -99.99    3  336    7 -99.9 -99.9 -999.9 -9.9 -9.999 -99.9 -99.99 -9.99
2019/07/19 18:12 EDT  -99.99 -99.99    7  321   10 -99.9 -99.9 -999.9 -9.9 -9.999 -99.9 -99.99 -9.99
2019/07/19 18:18 EDT  -99.99 -99.99    5  305    9 -99.9 -99.9 -999.9 -9.9 -9.999 -99.9 -99.99 -9.99
2019/07/19 18:24 EDT  -99.99 -99.99    6  322    8 -99.9 -99.9 -999.9 -9.9 -9.999 -99.9 -99.99 -9.99
2019/07/19 18:30 EDT  -99.99 -99.99    5  324    9 -99.9 -99.9 -999.9 -9.9 -9.999 -99.9 -99.99 -9.99
2019/07/19 18:36 EDT  -99.99 -99.99    4  334    9 -99.9 -99.9 -999.9 -9.9 -9.999 -99.9 -99.99 -9.99
2019/07/19 18:42 EDT  -99.99 -99.99    2  282    4 -99.9 -99.9 -999.9 -9.9 -9.999 -99.9 -99.99 -9.99
2019/07/19 18:48 EDT  -99.99 -99.99    6  321    9 -99.9 -99.9 -999.9 -9.9 -9.999 -99.9 -99.99 -9.99
2019/07/19 18:54 EDT  -99.99 -99.99    6  314   10 -99.9 -99.9 -999.9 -9.9 -9.999 -99.9 -99.99 -9.99
2019/07/19 19:00 EDT  -99.99 -99.99    4  319    7 -99.9 -99.9 -999.9 -9.9 -9.999 -99.9 -99.99 -9.99
2019/07/19 19:06 EDT  -99.99 -99.99    4  335    6 -99.9 -99.9 -999.9 -9.9 -9.999 -99.9 -99.99 -9.99
2019/07/19 19:12 EDT  -99.99 -99.99    2  325    5 -99.9 -99.9 -999.9 -9.9 -9.999 -99.9 -99.99 -9.99
2019/07/19 19:18 EDT  -99.99 -99.99    4  334    8 -99.9 -99.9 -999.9 -9.9 -9.999 -99.9 -99.99 -9.99
2019/07/19 19:24 EDT  -99.99 -99.99    3  305    7 -99.9 -99.9 -999.9 -9.9 -9.999 -99.9 -99.99 -9.99
2019/07/19 19:30 EDT  -99.99 -99.99    4  292    8 -99.9 -99.9 -999.9 -9.9 -9.999 -99.9 -99.99 -9.99
2019/07/19 19:36 EDT  -99.99 -99.99    5  330    8 -99.9 -99.9 -999.9 -9.9 -9.999 -99.9 -99.99 -9.99
2019/07/19 19:42 EDT  -99.99 -99.99    3  328    5 -99.9 -99.9 -999.9 -9.9 -9.999 -99.9 -99.99 -9.99
2019/07/19 19:48 EDT  -99.99 -99.99    4  350    7 -99.9 -99.9 -999.9 -9.9 -9.999 -99.9 -99.99 -9.99
2019/07/19 19:54 EDT  -99.99 -99.99    3  336    6 -99.9 -99.9 -999.9 -9.9 -9.999 -99.9 -99.99 -9.99
2019/07/19 20:00 EDT  -99.99 -99.99    3  334    5 -99.9 -99.9 -999.9 -9.9 -9.999 -99.9 -99.99 -9.99
2019/07/19 20:06 EDT  -99.99 -99.99    4   98   11 -99.9 -99.9 -999.9 -9.9 -9.999 -99.9 -99.99 -9.99
2019/07/19 20:12 EDT  -99.99 -99.99   10  141   18 -99.9 -99.9 -999.9 -9.9 -9.999 -99.9 -99.99 -9.99
2019/07/19 20:18 EDT  -99.99 -99.99   16  108   20 -99.9 -99.9 -999.9 -9.9 -9.999 -99.9 -99.99 -9.99
2019/07/19 20:24 EDT  -99.99 -99.99   25  110   31 -99.9 -99.9 -999.9 -9.9 -9.999 -99.9 -99.99 -9.99
2019/07/19 20:30 EDT  -99.99 -99.99   20   94   26 -99.9 -99.9 -999.9 -9.9 -9.999 -99.9 -99.99 -9.99
2019/07/19 20:36 EDT  -99.99 -99.99   18   48   25 -99.9 -99.9 -999.9 -9.9 -9.999 -99.9 -99.99 -9.99
2019/07/19 20:42 EDT  -99.99 -99.99   12  358   18 -99.9 -99.9 -999.9 -9.9 -9.999 -99.9 -99.99 -9.99
2019/07/19 20:48 EDT  -99.99 -99.99   16  343   19 -99.9 -99.9 -999.9 -9.9 -9.999 -99.9 -99.99 -9.99
2019/07/19 20:54 EDT  -99.99 -99.99   14  347   20 -99.9 -99.9 -999.9 -9.9 -9.999 -99.9 -99.99 -9.99
2019/07/19 21:00 EDT  -99.99 -99.99   13  345   19 -99.9 -99.9 -999.9 -9.9 -9.999 -99.9 -99.99 -9.99
2019/07/19 21:06 EDT  -99.99 -99.99    6  317   12 -99.9 -99.9 -999.9 -9.9 -9.999 -99.9 -99.99 -9.99
2019/07/19 21:12 EDT  -99.99 -99.99    7  322   12 -99.9 -99.9 -999.9 -9.9 -9.999 -99.9 -99.99 -9.99
2019/07/19 21:18 EDT  -99.99 -99.99    5  336    6 -99.9 -99.9 -999.9 -9.9 -9.999 -99.9 -99.99 -9.99
2019/07/19 21:24 EDT  -99.99 -99.99    5  352   10 -99.9 -99.9 -999.9 -9.9 -9.999 -99.9 -99.99 -9.99
2019/07/19 21:30 EDT  -99.99 -99.99    9  350   13 -99.9 -99.9 -999.9 -9.9 -9.999 -99.9 -99.99 -9.99
2019/07/19 21:36 EDT  -99.99 -99.99    4  325    7 -99.9 -99.9 -999.9 -9.9 -9.999 -99.9 -99.99 -9.99
2019/07/19 21:42 EDT  -99.99 -99.99    7  314   11 -99.9 -99.9 -999.9 -9.9 -9.999 -99.9 -99.99 -9.99
2019/07/19 21:48 EDT  -99.99 -99.99    6  316    9 -99.9 -99.9 -999.9 -9.9 -9.999 -99.9 -99.99 -9.99
2019/07/19 21:54 EDT  -99.99 -99.99    3  318    7 -99.9 -99.9 -999.9 -9.9 -9.999 -99.9 -99.99 -9.99
2019/07/19 22:00 EDT  -99.99 -99.99    4  351    6 -99.9 -99.9 -999.9 -9.9 -9.999 -99.9 -99.99 -9.99
2019/07/19 22:06 EDT  -99.99 -99.99    6    0    8 -99.9 -99.9 -999.9 -9.9 -9.999 -99.9 -99.99 -9.99
2019/07/19 22:12 EDT  -99.99 -99.99    3  348    5 -99.9 -99.9 -999.9 -9.9 -9.999 -99.9 -99.99 -9.99
2019/07/19 22:18 EDT  -99.99 -99.99    2   27    4 -99.9 -99.9 -999.9 -9.9 -9.999 -99.9 -99.99 -9.99
2019/07/19 22:24 EDT  -99.99 -99.99    4  341    5 -99.9 -99.9 -999.9 -9.9 -9.999 -99.9 -99.99 -9.99
2019/07/19 22:30 EDT  -99.99 -99.99    3  353    4 -99.9 -99.9 -999.9 -9.9 -9.999 -99.9 -99.99 -9.99
2019/07/19 22:36 EDT  -99.99 -99.99    2  314    3 -99.9 -99.9 -999.9 -9.9 -9.999 -99.9 -99.99 -9.99
2019/07/19 22:42 EDT  -99.99 -99.99    2  344    3 -99.9 -99.9 -999.9 -9.9 -9.999 -99.9 -99.99 -9.99
2019/07/19 22:48 EDT  -99.99 -99.99    3  341    6 -99.9 -99.9 -999.9 -9.9 -9.999 -99.9 -99.99 -9.99
2019/07/19 22:54 EDT  -99.99 -99.99    2  306    4 -99.9 -99.9 -999.9 -9.9 -9.999 -99.9 -99.99 -9.99
2019/07/19 23:00 EDT  -99.99 -99.99    2   10    3 -99.9 -99.9 -999.9 -9.9 -9.999 -99.9 -99.99 -9.99
2019/07/19 23:06 EDT  -99.99 -99.99    3   19    4 -99.9 -99.9 -999.9 -9.9 -9.999 -99.9 -99.99 -9.99
2019/07/19 23:12 EDT  -99.99 -99.99    3   47    4 -99.9 -99.9 -999.9 -9.9 -9.999 -99.9 -99.99 -9.99
2019/07/19 23:18 EDT  -99.99 -99.99    3   46    4 -99.9 -99.9 -999.9 -9.9 -9.999 -99.9 -99.99 -9.99
2019/07/19 23:24 EDT  -99.99 -99.99    1  110    2 -99.9 -99.9 -999.9 -9.9 -9.999 -99.9 -99.99 -9.99
2019/07/19 23:30 EDT  -99.99 -99.99    2  116    3 -99.9 -99.9 -999.9 -9.9 -9.999 -99.9 -99.99 -9.99
2019/07/19 23:36 EDT  -99.99 -99.99    4  101    5 -99.9 -99.9 -999.9 -9.9 -9.999 -99.9 -99.99 -9.99
2019/07/19 23:42 EDT  -99.99 -99.99    2   88    4 -99.9 -99.9 -999.9 -9.9 -9.999 -99.9 -99.99 -9.99
2019/07/19 23:48 EDT  -99.99 -99.99    3  100    4 -99.9 -99.9 -999.9 -9.9 -9.999 -99.9 -99.99 -9.99
2019/07/19 23:54 EDT  -99.99 -99.99    2   50    2 -99.9 -99.9 -999.9 -9.9 -9.999 -99.9 -99.99 -9.99
2019/07/20 00:00 EDT  -99.99 -99.99    2   73    4 -99.9 -99.9 -999.9 -9.9 -9.999 -99.9 -99.99 -9.99
2019/07/20 00:06 EDT  -99.99 -99.99    0   15    1 -99.9 -99.9 -999.9 -9.9 -9.999 -99.9 -99.99 -9.99
2019/07/20 00:12 EDT  -99.99 -99.99    0   69    1 -99.9 -99.9 -999.9 -9.9 -9.999 -99.9 -99.99 -9.99
2019/07/20 00:18 EDT  -99.99 -99.99    0  127    0 -99.9 -99.9 -999.9 -9.9 -9.999 -99.9 -99.99 -9.99
2019/07/20 00:24 EDT  -99.99 -99.99    1   97    2 -99.9 -99.9 -999.9 -9.9 -9.999 -99.9 -99.99 -9.99
2019/07/20 00:30 EDT  -99.99 -99.99    2   78    2 -99.9 -99.9 -999.9 -9.9 -9.999 -99.9 -99.99 -9.99
2019/07/20 00:36 EDT  -99.99 -99.99    1    5    1 -99.9 -99.9 -999.9 -9.9 -9.999 -99.9 -99.99 -9.99
2019/07/20 00:42 EDT  -99.99 -99.99    2  347    3 -99.9 -99.9 -999.9 -9.9 -9.999 -99.9 -99.99 -9.99
2019/07/20 00:48 EDT  -99.99 -99.99    3  353    5 -99.9 -99.9 -999.9 -9.9 -9.999 -99.9 -99.99 -9.99
2019/07/20 00:54 EDT  -99.99 -99.99    4  351    5 -99.9 -99.9 -999.9 -9.9 -9.999 -99.9 -99.99 -9.99
2019/07/20 01:00 EDT  -99.99 -99.99    4  359    6 -99.9 -99.9 -999.9 -9.9 -9.999 -99.9 -99.99 -9.99
2019/07/20 01:06 EDT  -99.99 -99.99    5  352    6 -99.9 -99.9 -999.9 -9.9 -9.999 -99.9 -99.99 -9.99
2019/07/20 01:12 EDT  -99.99 -99.99    5  358    6 -99.9 -99.9 -999.9 -9.9 -9.999 -99.9 -99.99 -9.99
2019/07/20 01:18 EDT  -99.99 -99.99    5  357    6 -99.9 -99.9 -999.9 -9.9 -9.999 -99.9 -99.99 -9.99
2019/07/20 01:24 EDT  -99.99 -99.99    4    1    5 -99.9 -99.9 -999.9 -9.9 -9.999 -99.9 -99.99 -9.99
2019/07/20 01:30 EDT  -99.99 -99.99    5    5    6 -99.9 -99.9 -999.9 -9.9 -9.999 -99.9 -99.99 -9.99
2019/07/20 01:36 EDT  -99.99 -99.99    4  357    5 -99.9 -99.9 -999.9 -9.9 -9.999 -99.9 -99.99 -9.99
2019/07/20 01:42 EDT  -99.99 -99.99    4    7    7 -99.9 -99.9 -999.9 -9.9 -9.999 -99.9 -99.99 -9.99
2019/07/20 01:48 EDT  -99.99 -99.99    5    8    7 -99.9 -99.9 -999.9 -9.9 -9.999 -99.9 -99.99 -9.99
2019/07/20 01:54 EDT  -99.99 -99.99    3    8    4 -99.9 -99.9 -999.9 -9.9 -9.999 -99.9 -99.99 -9.99
2019/07/20 02:00 EDT  -99.99 -99.99    2    1    3 -99.9 -99.9 -999.9 -9.9 -9.999 -99.9 -99.99 -9.99
2019/07/20 02:06 EDT  -99.99 -99.99    1   11    2 -99.9 -99.9 -999.9 -9.9 -9.999 -99.9 -99.99 -9.99
2019/07/20 02:12 EDT  -99.99 -99.99    2   26    3 -99.9 -99.9 -999.9 -9.9 -9.999 -99.9 -99.99 -9.99
2019/07/20 02:18 EDT  -99.99 -99.99    3   10    4 -99.9 -99.9 -999.9 -9.9 -9.999 -99.9 -99.99 -9.99
2019/07/20 02:24 EDT  -99.99 -99.99    1   83    2 -99.9 -99.9 -999.9 -9.9 -9.999 -99.9 -99.99 -9.99
2019/07/20 02:30 EDT  -99.99 -99.99    3   46    4 -99.9 -99.9 -999.9 -9.9 -9.999 -99.9 -99.99 -9.99
2019/07/20 02:36 EDT  -99.99 -99.99    4    8    5 -99.9 -99.9 -999.9 -9.9 -9.999 -99.9 -99.99 -9.99
2019/07/20 02:42 EDT  -99.99 -99.99    5  356    6 -99.9 -99.9 -999.9 -9.9 -9.999 -99.9 -99.99 -9.99
2019/07/20 02:48 EDT  -99.99 -99.99    6  359    7 -99.9 -99.9 -999.9 -9.9 -9.999 -99.9 -99.99 -9.99
2019/07/20 02:54 EDT  -99.99 -99.99    4  356    5 -99.9 -99.9 -999.9 -9.9 -9.999 -99.9 -99.99 -9.99
2019/07/20 03:00 EDT  -99.99 -99.99    5    4    6 -99.9 -99.9 -999.9 -9.9 -9.999 -99.9 -99.99 -9.99
2019/07/20 03:06 EDT  -99.99 -99.99    4   12    5 -99.9 -99.9 -999.9 -9.9 -9.999 -99.9 -99.99 -9.99
2019/07/20 03:12 EDT  -99.99 -99.99    4   12    6 -99.9 -99.9 -999.9 -9.9 -9.999 -99.9 -99.99 -9.99
2019/07/20 03:18 EDT  -99.99 -99.99    3    1    4 -99.9 -99.9 -999.9 -9.9 -9.999 -99.9 -99.99 -9.99
2019/07/20 03:24 EDT  -99.99 -99.99    3    7    4 -99.9 -99.9 -999.9 -9.9 -9.999 -99.9 -99.99 -9.99
2019/07/20 03:30 EDT  -99.99 -99.99    3   14    5 -99.9 -99.9 -999.9 -9.9 -9.999 -99.9 -99.99 -9.99
2019/07/20 03:36 EDT  -99.99 -99.99    4    9    6 -99.9 -99.9 -999.9 -9.9 -9.999 -99.9 -99.99 -9.99
2019/07/20 03:42 EDT  -99.99 -99.99    4   12    6 -99.9 -99.9 -999.9 -9.9 -9.999 -99.9 -99.99 -9.99
2019/07/20 03:48 EDT  -99.99 -99.99    4    9    6 -99.9 -99.9 -999.9 -9.9 -9.999 -99.9 -99.99 -9.99
2019/07/20 03:54 EDT  -99.99 -99.99    3   33    4 -99.9 -99.9 -999.9 -9.9 -9.999 -99.9 -99.99 -9.99
2019/07/20 04:00 EDT  -99.99 -99.99    3   11    3 -99.9 -99.9 -999.9 -9.9 -9.999 -99.9 -99.99 -9.99
2019/07/20 04:06 EDT  -99.99 -99.99    2    4    4 -99.9 -99.9 -999.9 -9.9 -9.999 -99.9 -99.99 -9.99
2019/07/20 04:12 EDT  -99.99 -99.99    3   22    4 -99.9 -99.9 -999.9 -9.9 -9.999 -99.9 -99.99 -9.99
2019/07/20 04:18 EDT  -99.99 -99.99    2   38    4 -99.9 -99.9 -999.9 -9.9 -9.999 -99.9 -99.99 -9.99
2019/07/20 04:24 EDT  -99.99 -99.99    3   38    4 -99.9 -99.9 -999.9 -9.9 -9.999 -99.9 -99.99 -9.99
2019/07/20 04:30 EDT  -99.99 -99.99    3   51    5 -99.9 -99.9 -999.9 -9.9 -9.999 -99.9 -99.99 -9.99
2019/07/20 04:36 EDT  -99.99 -99.99    3   35    5 -99.9 -99.9 -999.9 -9.9 -9.999 -99.9 -99.99 -9.99
2019/07/20 04:42 EDT  -99.99 -99.99    5   56    6 -99.9 -99.9 -999.9 -9.9 -9.999 -99.9 -99.99 -9.99
2019/07/20 04:48 EDT  -99.99 -99.99    5   57    7 -99.9 -99.9 -999.9 -9.9 -9.999 -99.9 -99.99 -9.99
2019/07/20 04:54 EDT  -99.99 -99.99    4   54    5 -99.9 -99.9 -999.9 -9.9 -9.999 -99.9 -99.99 -9.99
2019/07/20 05:00 EDT  -99.99 -99.99    4   43    5 -99.9 -99.9 -999.9 -9.9 -9.999 -99.9 -99.99 -9.99
2019/07/20 05:06 EDT  -99.99 -99.99    4   47    5 -99.9 -99.9 -999.9 -9.9 -9.999 -99.9 -99.99 -9.99
2019/07/20 05:12 EDT  -99.99 -99.99    4   71    5 -99.9 -99.9 -999.9 -9.9 -9.999 -99.9 -99.99 -9.99
2019/07/20 05:18 EDT  -99.99 -99.99    3   70    5 -99.9 -99.9 -999.9 -9.9 -9.999 -99.9 -99.99 -9.99
2019/07/20 05:24 EDT  -99.99 -99.99    4   54    6 -99.9 -99.9 -999.9 -9.9 -9.999 -99.9 -99.99 -9.99
2019/07/20 05:30 EDT  -99.99 -99.99    4   72    5 -99.9 -99.9 -999.9 -9.9 -9.999 -99.9 -99.99 -9.99
2019/07/20 05:36 EDT  -99.99 -99.99    4   65    5 -99.9 -99.9 -999.9 -9.9 -9.999 -99.9 -99.99 -9.99
2019/07/20 05:42 EDT  -99.99 -99.99    4   61    5 -99.9 -99.9 -999.9 -9.9 -9.999 -99.9 -99.99 -9.99
2019/07/20 05:48 EDT  -99.99 -99.99    4   64    6 -99.9 -99.9 -999.9 -9.9 -9.999 -99.9 -99.99 -9.99
2019/07/20 05:54 EDT  -99.99 -99.99    5   85    6 -99.9 -99.9 -999.9 -9.9 -9.999 -99.9 -99.99 -9.99
2019/07/20 06:00 EDT  -99.99 -99.99    4   81    6 -99.9 -99.9 -999.9 -9.9 -9.999 -99.9 -99.99 -9.99
2019/07/20 06:06 EDT  -99.99 -99.99    4   82    6 -99.9 -99.9 -999.9 -9.9 -9.999 -99.9 -99.99 -9.99
2019/07/20 06:12 EDT  -99.99 -99.99    3   78    5 -99.9 -99.9 -999.9 -9.9 -9.999 -99.9 -99.99 -9.99
2019/07/20 06:18 EDT  -99.99 -99.99    3   74    5 -99.9 -99.9 -999.9 -9.9 -9.999 -99.9 -99.99 -9.99
2019/07/20 06:24 EDT  -99.99 -99.99    4   79    6 -99.9 -99.9 -999.9 -9.9 -9.999 -99.9 -99.99 -9.99
2019/07/20 06:30 EDT  -99.99 -99.99    3   78    5 -99.9 -99.9 -999.9 -9.9 -9.999 -99.9 -99.99 -9.99
2019/07/20 06:36 EDT  -99.99 -99.99    2   63    4 -99.9 -99.9 -999.9 -9.9 -9.999 -99.9 -99.99 -9.99
2019/07/20 06:42 EDT  -99.99 -99.99    3   76    4 -99.9 -99.9 -999.9 -9.9 -9.999 -99.9 -99.99 -9.99
2019/07/20 06:48 EDT  -99.99 -99.99    2   67    3 -99.9 -99.9 -999.9 -9.9 -9.999 -99.9 -99.99 -9.99
2019/07/20 06:54 EDT  -99.99 -99.99    3   69    4 -99.9 -99.9 -999.9 -9.9 -9.999 -99.9 -99.99 -9.99
2019/07/20 07:00 EDT  -99.99 -99.99    3   81    4 -99.9 -99.9 -999.9 -9.9 -9.999 -99.9 -99.99 -9.99
2019/07/20 07:06 EDT  -99.99 -99.99    4   84    5 -99.9 -99.9 -999.9 -9.9 -9.999 -99.9 -99.99 -9.99
2019/07/20 07:12 EDT  -99.99 -99.99    5   88    6 -99.9 -99.9 -999.9 -9.9 -9.999 -99.9 -99.99 -9.99
2019/07/20 07:18 EDT  -99.99 -99.99    4   85    6 -99.9 -99.9 -999.9 -9.9 -9.999 -99.9 -99.99 -9.99
2019/07/20 07:24 EDT  -99.99 -99.99    3   78    5 -99.9 -99.9 -999.9 -9.9 -9.999 -99.9 -99.99 -9.99
2019/07/20 07:30 EDT  -99.99 -99.99    5   85    6 -99.9 -99.9 -999.9 -9.9 -9.999 -99.9 -99.99 -9.99
2019/07/20 07:36 EDT  -99.99 -99.99    5   84    6 -99.9 -99.9 -999.9 -9.9 -9.999 -99.9 -99.99 -9.99
2019/07/20 07:42 EDT  -99.99 -99.99    4   92    5 -99.9 -99.9 -999.9 -9.9 -9.999 -99.9 -99.99 -9.99
2019/07/20 07:48 EDT  -99.99 -99.99    4   78    6 -99.9 -99.9 -999.9 -9.9 -9.999 -99.9 -99.99 -9.99
2019/07/20 07:54 EDT  -99.99 -99.99    4   82    7 -99.9 -99.9 -999.9 -9.9 -9.999 -99.9 -99.99 -9.99
2019/07/20 08:00 EDT  -99.99 -99.99    6   91    7 -99.9 -99.9 -999.9 -9.9 -9.999 -99.9 -99.99 -9.99
2019/07/20 08:06 EDT  -99.99 -99.99    5   85    7 -99.9 -99.9 -999.9 -9.9 -9.999 -99.9 -99.99 -9.99
2019/07/20 08:12 EDT  -99.99 -99.99    4   86    6 -99.9 -99.9 -999.9 -9.9 -9.999 -99.9 -99.99 -9.99
2019/07/20 08:18 EDT  -99.99 -99.99    5   87    8 -99.9 -99.9 -999.9 -9.9 -9.999 -99.9 -99.99 -9.99
2019/07/20 08:24 EDT  -99.99 -99.99    5  104    6 -99.9 -99.9 -999.9 -9.9 -9.999 -99.9 -99.99 -9.99
2019/07/20 08:30 EDT  -99.99 -99.99    4   87    7 -99.9 -99.9 -999.9 -9.9 -9.999 -99.9 -99.99 -9.99
2019/07/20 08:36 EDT  -99.99 -99.99    6   95    7 -99.9 -99.9 -999.9 -9.9 -9.999 -99.9 -99.99 -9.99
2019/07/20 08:42 EDT  -99.99 -99.99    5   81    6 -99.9 -99.9 -999.9 -9.9 -9.999 -99.9 -99.99 -9.99
2019/07/20 08:48 EDT  -99.99 -99.99    5   97    7 -99.9 -99.9 -999.9 -9.9 -9.999 -99.9 -99.99 -9.99
2019/07/20 08:54 EDT  -99.99 -99.99    4   93    6 -99.9 -99.9 -999.9 -9.9 -9.999 -99.9 -99.99 -9.99
2019/07/20 09:00 EDT  -99.99 -99.99    6   92    8 -99.9 -99.9 -999.9 -9.9 -9.999 -99.9 -99.99 -9.99
2019/07/20 09:06 EDT  -99.99 -99.99    5   94    7 -99.9 -99.9 -999.9 -9.9 -9.999 -99.9 -99.99 -9.99
2019/07/20 09:12 EDT  -99.99 -99.99    5  114    8 -99.9 -99.9 -999.9 -9.9 -9.999 -99.9 -99.99 -9.99
2019/07/20 09:18 EDT  -99.99 -99.99    4  112    6 -99.9 -99.9 -999.9 -9.9 -9.999 -99.9 -99.99 -9.99
2019/07/20 09:24 EDT  -99.99 -99.99    5  127    7 -99.9 -99.9 -999.9 -9.9 -9.999 -99.9 -99.99 -9.99
2019/07/20 09:30 EDT  -99.99 -99.99    7  109    9 -99.9 -99.9 -999.9 -9.9 -9.999 -99.9 -99.99 -9.99
2019/07/20 09:36 EDT  -99.99 -99.99    7  108    8 -99.9 -99.9 -999.9 -9.9 -9.999 -99.9 -99.99 -9.99
2019/07/20 09:42 EDT  -99.99 -99.99    5  144    7 -99.9 -99.9 -999.9 -9.9 -9.999 -99.9 -99.99 -9.99
2019/07/20 09:48 EDT  -99.99 -99.99    5  117    7 -99.9 -99.9 -999.9 -9.9 -9.999 -99.9 -99.99 -9.99
2019/07/20 09:54 EDT  -99.99 -99.99    6  115    8 -99.9 -99.9 -999.9 -9.9 -9.999 -99.9 -99.99 -9.99
2019/07/20 10:00 EDT  -99.99 -99.99    4  124    6 -99.9 -99.9 -999.9 -9.9 -9.999 -99.9 -99.99 -9.99
2019/07/20 10:06 EDT  -99.99 -99.99    8  105   10 -99.9 -99.9 -999.9 -9.9 -9.999 -99.9 -99.99 -9.99
2019/07/20 10:12 EDT  -99.99 -99.99    8  117    9 -99.9 -99.9 -999.9 -9.9 -9.999 -99.9 -99.99 -9.99
2019/07/20 10:18 EDT  -99.99 -99.99    6  123    9 -99.9 -99.9 -999.9 -9.9 -9.999 -99.9 -99.99 -9.99
2019/07/20 10:24 EDT  -99.99 -99.99    4  168    7 -99.9 -99.9 -999.9 -9.9 -9.999 -99.9 -99.99 -9.99
2019/07/20 10:30 EDT  -99.99 -99.99    6  173    8 -99.9 -99.9 -999.9 -9.9 -9.999 -99.9 -99.99 -9.99
2019/07/20 10:36 EDT  -99.99 -99.99    6  171    7 -99.9 -99.9 -999.9 -9.9 -9.999 -99.9 -99.99 -9.99
2019/07/20 10:42 EDT  -99.99 -99.99    6  143    8 -99.9 -99.9 -999.9 -9.9 -9.999 -99.9 -99.99 -9.99
2019/07/20 10:48 EDT  -99.99 -99.99    6  126    9 -99.9 -99.9 -999.9 -9.9 -9.999 -99.9 -99.99 -9.99
2019/07/20 10:54 EDT  -99.99 -99.99    8  129    9 -99.9 -99.9 -999.9 -9.9 -9.999 -99.9 -99.99 -9.99
2019/07/20 11:00 EDT  -99.99 -99.99    3  126    5 -99.9 -99.9 -999.9 -9.9 -9.999 -99.9 -99.99 -9.99
2019/07/20 11:06 EDT  -99.99 -99.99    5  105    6 -99.9 -99.9 -999.9 -9.9 -9.999 -99.9 -99.99 -9.99
2019/07/20 11:12 EDT  -99.99 -99.99    6  111    8 -99.9 -99.9 -999.9 -9.9 -9.999 -99.9 -99.99 -9.99
2019/07/20 11:18 EDT  -99.99 -99.99    4  113    6 -99.9 -99.9 -999.9 -9.9 -9.999 -99.9 -99.99 -9.99
2019/07/20 11:24 EDT  -99.99 -99.99    6  126    9 -99.9 -99.9 -999.9 -9.9 -9.999 -99.9 -99.99 -9.99
2019/07/20 11:30 EDT  -99.99 -99.99    5  113    8 -99.9 -99.9 -999.9 -9.9 -9.999 -99.9 -99.99 -9.99
2019/07/20 11:36 EDT  -99.99 -99.99    5   90    6 -99.9 -99.9 -999.9 -9.9 -9.999 -99.9 -99.99 -9.99
2019/07/20 11:42 EDT  -99.99 -99.99    3  103    5 -99.9 -99.9 -999.9 -9.9 -9.999 -99.9 -99.99 -9.99
2019/07/20 11:48 EDT  -99.99 -99.99    4  112    7 -99.9 -99.9 -999.9 -9.9 -9.999 -99.9 -99.99 -9.99
2019/07/20 11:54 EDT  -99.99 -99.99    2  131    3 -99.9 -99.9 -999.9 -9.9 -9.999 -99.9 -99.99 -9.99
2019/07/20 12:00 EDT  -99.99 -99.99    5  124    6 -99.9 -99.9 -999.9 -9.9 -9.999 -99.9 -99.99 -9.99
2019/07/20 12:06 EDT  -99.99 -99.99    4  152    6 -99.9 -99.9 -999.9 -9.9 -9.999 -99.9 -99.99 -9.99
2019/07/20 12:12 EDT  -99.99 -99.99    4  177    6 -99.9 -99.9 -999.9 -9.9 -9.999 -99.9 -99.99 -9.99
2019/07/20 12:18 EDT  -99.99 -99.99    4  180    6 -99.9 -99.9 -999.9 -9.9 -9.999 -99.9 -99.99 -9.99
2019/07/20 12:24 EDT  -99.99 -99.99    4  183    7 -99.9 -99.9 -999.9 -9.9 -9.999 -99.9 -99.99 -9.99
2019/07/20 12:30 EDT  -99.99 -99.99    4  180    8 -99.9 -99.9 -999.9 -9.9 -9.999 -99.9 -99.99 -9.99
2019/07/20 12:36 EDT  -99.99 -99.99    5  166    8 -99.9 -99.9 -999.9 -9.9 -9.999 -99.9 -99.99 -9.99
2019/07/20 12:42 EDT  -99.99 -99.99    7  163    9 -99.9 -99.9 -999.9 -9.9 -9.999 -99.9 -99.99 -9.99
2019/07/20 12:48 EDT  -99.99 -99.99    4  168    7 -99.9 -99.9 -999.9 -9.9 -9.999 -99.9 -99.99 -9.99
2019/07/20 12:54 EDT  -99.99 -99.99    5  184    8 -99.9 -99.9 -999.9 -9.9 -9.999 -99.9 -99.99 -9.99
2019/07/20 13:00 EDT  -99.99 -99.99    4  173    5 -99.9 -99.9 -999.9 -9.9 -9.999 -99.9 -99.99 -9.99
2019/07/20 13:06 EDT  -99.99 -99.99    3  216    5 -99.9 -99.9 -999.9 -9.9 -9.999 -99.9 -99.99 -9.99
2019/07/20 13:12 EDT  -99.99 -99.99    3  190    5 -99.9 -99.9 -999.9 -9.9 -9.999 -99.9 -99.99 -9.99
2019/07/20 13:18 EDT  -99.99 -99.99    4  208    7 -99.9 -99.9 -999.9 -9.9 -9.999 -99.9 -99.99 -9.99
2019/07/20 13:24 EDT  -99.99 -99.99    4  246    9 -99.9 -99.9 -999.9 -9.9 -9.999 -99.9 -99.99 -9.99
2019/07/20 13:30 EDT  -99.99 -99.99    4  244    7 -99.9 -99.9 -999.9 -9.9 -9.999 -99.9 -99.99 -9.99
2019/07/20 13:36 EDT  -99.99 -99.99    5  180    8 -99.9 -99.9 -999.9 -9.9 -9.999 -99.9 -99.99 -9.99
2019/07/20 13:42 EDT  -99.99 -99.99    3  200    6 -99.9 -99.9 -999.9 -9.9 -9.999 -99.9 -99.99 -9.99
2019/07/20 13:48 EDT  -99.99 -99.99    5  222    7 -99.9 -99.9 -999.9 -9.9 -9.999 -99.9 -99.99 -9.99
2019/07/20 13:54 EDT  -99.99 -99.99    4  208    6 -99.9 -99.9 -999.9 -9.9 -9.999 -99.9 -99.99 -9.99
2019/07/20 14:00 EDT  -99.99 -99.99    3  183    5 -99.9 -99.9 -999.9 -9.9 -9.999 -99.9 -99.99 -9.99
2019/07/20 14:06 EDT  -99.99 -99.99    4  209    6 -99.9 -99.9 -999.9 -9.9 -9.999 -99.9 -99.99 -9.99
2019/07/20 14:12 EDT  -99.99 -99.99    4  212    6 -99.9 -99.9 -999.9 -9.9 -9.999 -99.9 -99.99 -9.99
2019/07/20 14:18 EDT  -99.99 -99.99    4  212    6 -99.9 -99.9 -999.9 -9.9 -9.999 -99.9 -99.99 -9.99
2019/07/20 14:24 EDT  -99.99 -99.99    1  211    4 -99.9 -99.9 -999.9 -9.9 -9.999 -99.9 -99.99 -9.99
2019/07/20 14:30 EDT  -99.99 -99.99    3  233    5 -99.9 -99.9 -999.9 -9.9 -9.999 -99.9 -99.99 -9.99
2019/07/20 14:36 EDT  -99.99 -99.99    2  184    3 -99.9 -99.9 -999.9 -9.9 -9.999 -99.9 -99.99 -9.99
2019/07/20 14:42 EDT  -99.99 -99.99    4  230    6 -99.9 -99.9 -999.9 -9.9 -9.999 -99.9 -99.99 -9.99
2019/07/20 14:48 EDT  -99.99 -99.99    4  224    6 -99.9 -99.9 -999.9 -9.9 -9.999 -99.9 -99.99 -9.99
2019/07/20 14:54 EDT  -99.99 -99.99    3  239    7 -99.9 -99.9 -999.9 -9.9 -9.999 -99.9 -99.99 -9.99
2019/07/20 15:00 EDT  -99.99 -99.99    1  224    3 -99.9 -99.9 -999.9 -9.9 -9.999 -99.9 -99.99 -9.99
2019/07/20 15:06 EDT  -99.99 -99.99    2  203    6 -99.9 -99.9 -999.9 -9.9 -9.999 -99.9 -99.99 -9.99
2019/07/20 15:12 EDT  -99.99 -99.99    3  227    6 -99.9 -99.9 -999.9 -9.9 -9.999 -99.9 -99.99 -9.99
2019/07/20 15:18 EDT  -99.99 -99.99    5  231    8 -99.9 -99.9 -999.9 -9.9 -9.999 -99.9 -99.99 -9.99
2019/07/20 15:24 EDT  -99.99 -99.99    3  235    7 -99.9 -99.9 -999.9 -9.9 -9.999 -99.9 -99.99 -9.99
2019/07/20 15:30 EDT  -99.99 -99.99    5  205    6 -99.9 -99.9 -999.9 -9.9 -9.999 -99.9 -99.99 -9.99
2019/07/20 15:36 EDT  -99.99 -99.99    4  205    6 -99.9 -99.9 -999.9 -9.9 -9.999 -99.9 -99.99 -9.99
2019/07/20 15:42 EDT  -99.99 -99.99    3  179    7 -99.9 -99.9 -999.9 -9.9 -9.999 -99.9 -99.99 -9.99
2019/07/20 15:48 EDT  -99.99 -99.99    4  207    6 -99.9 -99.9 -999.9 -9.9 -9.999 -99.9 -99.99 -9.99
2019/07/20 15:54 EDT  -99.99 -99.99    3  201    6 -99.9 -99.9 -999.9 -9.9 -9.999 -99.9 -99.99 -9.99
2019/07/20 16:00 EDT  -99.99 -99.99    2  100    3 -99.9 -99.9 -999.9 -9.9 -9.999 -99.9 -99.99 -9.99
2019/07/20 16:06 EDT  -99.99 -99.99    2  194    3 -99.9 -99.9 -999.9 -9.9 -9.999 -99.9 -99.99 -9.99
2019/07/20 16:12 EDT  -99.99 -99.99    2    4    4 -99.9 -99.9 -999.9 -9.9 -9.999 -99.9 -99.99 -9.99
2019/07/20 16:18 EDT  -99.99 -99.99    1   80    2 -99.9 -99.9 -999.9 -9.9 -9.999 -99.9 -99.99 -9.99
2019/07/20 16:24 EDT  -99.99 -99.99    7  337   11 -99.9 -99.9 -999.9 -9.9 -9.999 -99.9 -99.99 -9.99
2019/07/20 16:30 EDT  -99.99 -99.99    6  320   13 -99.9 -99.9 -999.9 -9.9 -9.999 -99.9 -99.99 -9.99
2019/07/20 16:36 EDT  -99.99 -99.99    6  323    9 -99.9 -99.9 -999.9 -9.9 -9.999 -99.9 -99.99 -9.99
2019/07/20 16:42 EDT  -99.99 -99.99    7  328   12 -99.9 -99.9 -999.9 -9.9 -9.999 -99.9 -99.99 -9.99
2019/07/20 16:48 EDT  -99.99 -99.99    4  326    8 -99.9 -99.9 -999.9 -9.9 -9.999 -99.9 -99.99 -9.99
2019/07/20 16:54 EDT  -99.99 -99.99    6  336   10 -99.9 -99.9 -999.9 -9.9 -9.999 -99.9 -99.99 -9.99
2019/07/20 17:00 EDT  -99.99 -99.99    5  327    7 -99.9 -99.9 -999.9 -9.9 -9.999 -99.9 -99.99 -9.99
2019/07/20 17:06 EDT  -99.99 -99.99    2  325    5 -99.9 -99.9 -999.9 -9.9 -9.999 -99.9 -99.99 -9.99
2019/07/20 17:12 EDT  -99.99 -99.99    3  223    5 -99.9 -99.9 -999.9 -9.9 -9.999 -99.9 -99.99 -9.99
2019/07/20 17:18 EDT  -99.99 -99.99    3  218    5 -99.9 -99.9 -999.9 -9.9 -9.999 -99.9 -99.99 -9.99
2019/07/20 17:24 EDT  -99.99 -99.99    7  199   12 -99.9 -99.9 -999.9 -9.9 -9.999 -99.9 -99.99 -9.99
2019/07/20 17:30 EDT  -99.99 -99.99    1   29    2 -99.9 -99.9 -999.9 -9.9 -9.999 -99.9 -99.99 -9.99
2019/07/20 17:36 EDT  -99.99 -99.99   10  108   12 -99.9 -99.9 -999.9 -9.9 -9.999 -99.9 -99.99 -9.99
2019/07/20 17:42 EDT  -99.99 -99.99    6  146    9 -99.9 -99.9 -999.9 -9.9 -9.999 -99.9 -99.99 -9.99
2019/07/20 17:48 EDT  -99.99 -99.99   12  138   19 -99.9 -99.9 -999.9 -9.9 -9.999 -99.9 -99.99 -9.99
2019/07/20 17:54 EDT  -99.99 -99.99   10  156   14 -99.9 -99.9 -999.9 -9.9 -9.999 -99.9 -99.99 -9.99
2019/07/20 18:00 EDT  -99.99 -99.99   14  165   23 -99.9 -99.9 -999.9 -9.9 -9.999 -99.9 -99.99 -9.99
2019/07/20 18:06 EDT  -99.99 -99.99   13  173   19 -99.9 -99.9 -999.9 -9.9 -9.999 -99.9 -99.99 -9.99
2019/07/20 18:12 EDT  -99.99 -99.99   11  166   17 -99.9 -99.9 -999.9 -9.9 -9.999 -99.9 -99.99 -9.99
2019/07/20 18:18 EDT  -99.99 -99.99   12  159   20 -99.9 -99.9 -999.9 -9.9 -9.999 -99.9 -99.99 -9.99
2019/07/20 18:24 EDT  -99.99 -99.99   13  163   19 -99.9 -99.9 -999.9 -9.9 -9.999 -99.9 -99.99 -9.99
2019/07/20 18:30 EDT  -99.99 -99.99   15  169   20 -99.9 -99.9 -999.9 -9.9 -9.999 -99.9 -99.99 -9.99
2019/07/20 18:36 EDT  -99.99 -99.99    7  193   12 -99.9 -99.9 -999.9 -9.9 -9.999 -99.9 -99.99 -9.99
2019/07/20 18:42 EDT  -99.99 -99.99    5  218    8 -99.9 -99.9 -999.9 -9.9 -9.999 -99.9 -99.99 -9.99
2019/07/20 18:48 EDT  -99.99 -99.99    4  241    8 -99.9 -99.9 -999.9 -9.9 -9.999 -99.9 -99.99 -9.99
2019/07/20 18:54 EDT  -99.99 -99.99    1  242    5 -99.9 -99.9 -999.9 -9.9 -9.999 -99.9 -99.99 -9.99
2019/07/20 19:00 EDT  -99.99 -99.99    2  243    6 -99.9 -99.9 -999.9 -9.9 -9.999 -99.9 -99.99 -9.99
2019/07/20 19:06 EDT  -99.99 -99.99    1  325    3 -99.9 -99.9 -999.9 -9.9 -9.999 -99.9 -99.99 -9.99
2019/07/20 19:12 EDT  -99.99 -99.99    3   14    4 -99.9 -99.9 -999.9 -9.9 -9.999 -99.9 -99.99 -9.99
2019/07/20 19:18 EDT  -99.99 -99.99    2  347    3 -99.9 -99.9 -999.9 -9.9 -9.999 -99.9 -99.99 -9.99
2019/07/20 19:24 EDT  -99.99 -99.99    1  357    2 -99.9 -99.9 -999.9 -9.9 -9.999 -99.9 -99.99 -9.99
2019/07/20 19:30 EDT  -99.99 -99.99    2  349    6 -99.9 -99.9 -999.9 -9.9 -9.999 -99.9 -99.99 -9.99
2019/07/20 19:36 EDT  -99.99 -99.99    2  326    4 -99.9 -99.9 -999.9 -9.9 -9.999 -99.9 -99.99 -9.99
2019/07/20 19:42 EDT  -99.99 -99.99    6  355    9 -99.9 -99.9 -999.9 -9.9 -9.999 -99.9 -99.99 -9.99
2019/07/20 19:48 EDT  -99.99 -99.99    5   12    6 -99.9 -99.9 -999.9 -9.9 -9.999 -99.9 -99.99 -9.99
2019/07/20 19:54 EDT  -99.99 -99.99    5   33    6 -99.9 -99.9 -999.9 -9.9 -9.999 -99.9 -99.99 -9.99
2019/07/20 20:00 EDT  -99.99 -99.99    4   36    5 -99.9 -99.9 -999.9 -9.9 -9.999 -99.9 -99.99 -9.99
2019/07/20 20:06 EDT  -99.99 -99.99    4  358    5 -99.9 -99.9 -999.9 -9.9 -9.999 -99.9 -99.99 -9.99
2019/07/20 20:12 EDT  -99.99 -99.99    6    2    8 -99.9 -99.9 -999.9 -9.9 -9.999 -99.9 -99.99 -9.99
2019/07/20 20:18 EDT  -99.99 -99.99    6  356    8 -99.9 -99.9 -999.9 -9.9 -9.999 -99.9 -99.99 -9.99
2019/07/20 20:24 EDT  -99.99 -99.99    6   15    7 -99.9 -99.9 -999.9 -9.9 -9.999 -99.9 -99.99 -9.99
2019/07/20 20:30 EDT  -99.99 -99.99    5  351    6 -99.9 -99.9 -999.9 -9.9 -9.999 -99.9 -99.99 -9.99
2019/07/20 20:36 EDT  -99.99 -99.99    5  341    7 -99.9 -99.9 -999.9 -9.9 -9.999 -99.9 -99.99 -9.99
2019/07/20 20:42 EDT  -99.99 -99.99    4  350    6 -99.9 -99.9 -999.9 -9.9 -9.999 -99.9 -99.99 -9.99
2019/07/20 20:48 EDT  -99.99 -99.99    4  348    6 -99.9 -99.9 -999.9 -9.9 -9.999 -99.9 -99.99 -9.99
2019/07/20 20:54 EDT  -99.99 -99.99    6  349    8 -99.9 -99.9 -999.9 -9.9 -9.999 -99.9 -99.99 -9.99
2019/07/20 21:00 EDT  -99.99 -99.99    6  348    9 -99.9 -99.9 -999.9 -9.9 -9.999 -99.9 -99.99 -9.99
2019/07/20 21:06 EDT  -99.99 -99.99    6  342    8 -99.9 -99.9 -999.9 -9.9 -9.999 -99.9 -99.99 -9.99
2019/07/20 21:12 EDT  -99.99 -99.99    4  339    6 -99.9 -99.9 -999.9 -9.9 -9.999 -99.9 -99.99 -9.99
2019/07/20 21:18 EDT  -99.99 -99.99    2  300    5 -99.9 -99.9 -999.9 -9.9 -9.999 -99.9 -99.99 -9.99
2019/07/20 21:24 EDT  -99.99 -99.99    3  332    4 -99.9 -99.9 -999.9 -9.9 -9.999 -99.9 -99.99 -9.99
2019/07/20 21:30 EDT  -99.99 -99.99    1  296    2 -99.9 -99.9 -999.9 -9.9 -9.999 -99.9 -99.99 -9.99
2019/07/20 21:36 EDT  -99.99 -99.99    2  116    3 -99.9 -99.9 -999.9 -9.9 -9.999 -99.9 -99.99 -9.99
2019/07/20 21:42 EDT  -99.99 -99.99    1   88    2 -99.9 -99.9 -999.9 -9.9 -9.999 -99.9 -99.99 -9.99
2019/07/20 21:48 EDT  -99.99 -99.99    1   67    2 -99.9 -99.9 -999.9 -9.9 -9.999 -99.9 -99.99 -9.99
2019/07/20 21:54 EDT  -99.99 -99.99    2  128    4 -99.9 -99.9 -999.9 -9.9 -9.999 -99.9 -99.99 -9.99
2019/07/20 22:00 EDT  -99.99 -99.99    3  162    5 -99.9 -99.9 -999.9 -9.9 -9.999 -99.9 -99.99 -9.99
2019/07/20 22:06 EDT  -99.99 -99.99    2  164    4 -99.9 -99.9 -999.9 -9.9 -9.999 -99.9 -99.99 -9.99
2019/07/20 22:12 EDT  -99.99 -99.99    4  131    5 -99.9 -99.9 -999.9 -9.9 -9.999 -99.9 -99.99 -9.99
2019/07/20 22:18 EDT  -99.99 -99.99    4  131    5 -99.9 -99.9 -999.9 -9.9 -9.999 -99.9 -99.99 -9.99
2019/07/20 22:24 EDT  -99.99 -99.99    4  141    5 -99.9 -99.9 -999.9 -9.9 -9.999 -99.9 -99.99 -9.99
2019/07/20 22:30 EDT  -99.99 -99.99    5  137    6 -99.9 -99.9 -999.9 -9.9 -9.999 -99.9 -99.99 -9.99
2019/07/20 22:36 EDT  -99.99 -99.99    4  136    6 -99.9 -99.9 -999.9 -9.9 -9.999 -99.9 -99.99 -9.99
2019/07/20 22:42 EDT  -99.99 -99.99    6  137    6 -99.9 -99.9 -999.9 -9.9 -9.999 -99.9 -99.99 -9.99
2019/07/20 22:48 EDT  -99.99 -99.99    4  139    7 -99.9 -99.9 -999.9 -9.9 -9.999 -99.9 -99.99 -9.99
2019/07/20 22:54 EDT  -99.99 -99.99    5  122    6 -99.9 -99.9 -999.9 -9.9 -9.999 -99.9 -99.99 -9.99
2019/07/20 23:00 EDT  -99.99 -99.99    4   96    5 -99.9 -99.9 -999.9 -9.9 -9.999 -99.9 -99.99 -9.99
2019/07/20 23:06 EDT  -99.99 -99.99    3   86    4 -99.9 -99.9 -999.9 -9.9 -9.999 -99.9 -99.99 -9.99
2019/07/20 23:12 EDT  -99.99 -99.99    5   80    6 -99.9 -99.9 -999.9 -9.9 -9.999 -99.9 -99.99 -9.99
2019/07/20 23:18 EDT  -99.99 -99.99    5   85    7 -99.9 -99.9 -999.9 -9.9 -9.999 -99.9 -99.99 -9.99
2019/07/20 23:24 EDT  -99.99 -99.99    5   57    7 -99.9 -99.9 -999.9 -9.9 -9.999 -99.9 -99.99 -9.99
2019/07/20 23:30 EDT  -99.99 -99.99    4   45    7 -99.9 -99.9 -999.9 -9.9 -9.999 -99.9 -99.99 -9.99
2019/07/20 23:36 EDT  -99.99 -99.99    4   50    6 -99.9 -99.9 -999.9 -9.9 -9.999 -99.9 -99.99 -9.99
2019/07/20 23:42 EDT  -99.99 -99.99    3    1    4 -99.9 -99.9 -999.9 -9.9 -9.999 -99.9 -99.99 -9.99
2019/07/20 23:48 EDT  -99.99 -99.99    4  356    5 -99.9 -99.9 -999.9 -9.9 -9.999 -99.9 -99.99 -9.99
2019/07/20 23:54 EDT  -99.99 -99.99    4  347    5 -99.9 -99.9 -999.9 -9.9 -9.999 -99.9 -99.99 -9.99
2019/07/21 00:00 EDT  -99.99 -99.99    3  324    6 -99.9 -99.9 -999.9 -9.9 -9.999 -99.9 -99.99 -9.99
2019/07/21 00:06 EDT  -99.99 -99.99    4  342    5 -99.9 -99.9 -999.9 -9.9 -9.999 -99.9 -99.99 -9.99
2019/07/21 00:12 EDT  -99.99 -99.99    5  345    7 -99.9 -99.9 -999.9 -9.9 -9.999 -99.9 -99.99 -9.99
2019/07/21 00:18 EDT  -99.99 -99.99    4  335    6 -99.9 -99.9 -999.9 -9.9 -9.999 -99.9 -99.99 -9.99
2019/07/21 00:24 EDT  -99.99 -99.99    5  346    6 -99.9 -99.9 -999.9 -9.9 -9.999 -99.9 -99.99 -9.99
2019/07/21 00:30 EDT  -99.99 -99.99    5  343    6 -99.9 -99.9 -999.9 -9.9 -9.999 -99.9 -99.99 -9.99
2019/07/21 00:36 EDT  -99.99 -99.99    4  343    6 -99.9 -99.9 -999.9 -9.9 -9.999 -99.9 -99.99 -9.99
2019/07/21 00:42 EDT  -99.99 -99.99    4  353    5 -99.9 -99.9 -999.9 -9.9 -9.999 -99.9 -99.99 -9.99
2019/07/21 00:48 EDT  -99.99 -99.99    4  348    5 -99.9 -99.9 -999.9 -9.9 -9.999 -99.9 -99.99 -9.99
2019/07/21 00:54 EDT  -99.99 -99.99    4    5    6 -99.9 -99.9 -999.9 -9.9 -9.999 -99.9 -99.99 -9.99
2019/07/21 01:00 EDT  -99.99 -99.99    3  352    4 -99.9 -99.9 -999.9 -9.9 -9.999 -99.9 -99.99 -9.99
2019/07/21 01:06 EDT  -99.99 -99.99    4   10    6 -99.9 -99.9 -999.9 -9.9 -9.999 -99.9 -99.99 -9.99
2019/07/21 01:12 EDT  -99.99 -99.99    4  357    5 -99.9 -99.9 -999.9 -9.9 -9.999 -99.9 -99.99 -9.99
2019/07/21 01:18 EDT  -99.99 -99.99    4   24    6 -99.9 -99.9 -999.9 -9.9 -9.999 -99.9 -99.99 -9.99
2019/07/21 01:24 EDT  -99.99 -99.99    4    9    5 -99.9 -99.9 -999.9 -9.9 -9.999 -99.9 -99.99 -9.99
2019/07/21 01:30 EDT  -99.99 -99.99    3   22    3 -99.9 -99.9 -999.9 -9.9 -9.999 -99.9 -99.99 -9.99
2019/07/21 01:36 EDT  -99.99 -99.99    3   24    4 -99.9 -99.9 -999.9 -9.9 -9.999 -99.9 -99.99 -9.99
2019/07/21 01:42 EDT  -99.99 -99.99    3   24    4 -99.9 -99.9 -999.9 -9.9 -9.999 -99.9 -99.99 -9.99
2019/07/21 01:48 EDT  -99.99 -99.99    2   20    3 -99.9 -99.9 -999.9 -9.9 -9.999 -99.9 -99.99 -9.99
2019/07/21 01:54 EDT  -99.99 -99.99    2   20    4 -99.9 -99.9 -999.9 -9.9 -9.999 -99.9 -99.99 -9.99
2019/07/21 02:00 EDT  -99.99 -99.99    4   31    5 -99.9 -99.9 -999.9 -9.9 -9.999 -99.9 -99.99 -9.99
2019/07/21 02:06 EDT  -99.99 -99.99    3   15    5 -99.9 -99.9 -999.9 -9.9 -9.999 -99.9 -99.99 -9.99
2019/07/21 02:12 EDT  -99.99 -99.99    3   31    4 -99.9 -99.9 -999.9 -9.9 -9.999 -99.9 -99.99 -9.99
2019/07/21 02:18 EDT  -99.99 -99.99    2   28    3 -99.9 -99.9 -999.9 -9.9 -9.999 -99.9 -99.99 -9.99
2019/07/21 02:24 EDT  -99.99 -99.99    2    7    3 -99.9 -99.9 -999.9 -9.9 -9.999 -99.9 -99.99 -9.99
2019/07/21 02:30 EDT  -99.99 -99.99    2  354    3 -99.9 -99.9 -999.9 -9.9 -9.999 -99.9 -99.99 -9.99
2019/07/21 02:36 EDT  -99.99 -99.99    3   18    4 -99.9 -99.9 -999.9 -9.9 -9.999 -99.9 -99.99 -9.99
2019/07/21 02:42 EDT  -99.99 -99.99    3   26    5 -99.9 -99.9 -999.9 -9.9 -9.999 -99.9 -99.99 -9.99
2019/07/21 02:48 EDT  -99.99 -99.99    4   21    5 -99.9 -99.9 -999.9 -9.9 -9.999 -99.9 -99.99 -9.99
2019/07/21 02:54 EDT  -99.99 -99.99    4   11    5 -99.9 -99.9 -999.9 -9.9 -9.999 -99.9 -99.99 -9.99
2019/07/21 03:00 EDT  -99.99 -99.99    5   36    6 -99.9 -99.9 -999.9 -9.9 -9.999 -99.9 -99.99 -9.99
2019/07/21 03:06 EDT  -99.99 -99.99    5   17    7 -99.9 -99.9 -999.9 -9.9 -9.999 -99.9 -99.99 -9.99
2019/07/21 03:12 EDT  -99.99 -99.99    4   23    5 -99.9 -99.9 -999.9 -9.9 -9.999 -99.9 -99.99 -9.99
2019/07/21 03:18 EDT  -99.99 -99.99    4   18    5 -99.9 -99.9 -999.9 -9.9 -9.999 -99.9 -99.99 -9.99
2019/07/21 03:24 EDT  -99.99 -99.99    4   19    5 -99.9 -99.9 -999.9 -9.9 -9.999 -99.9 -99.99 -9.99
2019/07/21 03:30 EDT  -99.99 -99.99 -999 -999 -999 -99.9 -99.9 -999.9 -9.9 -9.999 -99.9 -99.99 -9.99

Revised: 08/08/2018
NOAA / National Ocean Service
Web site owner: Center for Operational Oceanographic Products and Services